<?xml version="1.0" encoding="UTF-8" standalone="no" ?>
<gpx xmlns="http://www.topografix.com/GPX/1/1" xmlns:xsi="http://www.w3.org/2001/XMLSchema-instance" xsi:schemaLocation="http://www.topografix.com/GPX/1/1 http://www.topografix.com/GPX/1/1/gpx.xsd" version="1.1" creator="VisuGPX - https://www.visugpx.com">
  <metadata>
    <name>83-M-Villecroze</name>
    <desc><![CDATA[83-M-Villecroze : St Jean
2019-10-30]]></desc>
  </metadata>
  <trk>
    <name><![CDATA[2019-10-30-M-villecroze]]></name>
    <trkseg>
      <trkpt lat="43.56557" lon="6.29326">
        <ele>326.3</ele>
        <time>2019-10-30T12:46:20Z</time>
      </trkpt>
      <trkpt lat="43.56558" lon="6.29326">
        <ele>326.3</ele>
        <time>2019-10-30T12:46:21Z</time>
      </trkpt>
      <trkpt lat="43.56566" lon="6.29328">
        <ele>325.5</ele>
        <time>2019-10-30T12:47:00Z</time>
      </trkpt>
      <trkpt lat="43.56565" lon="6.29341">
        <ele>327.7</ele>
        <time>2019-10-30T12:51:25Z</time>
      </trkpt>
      <trkpt lat="43.56563" lon="6.29354">
        <ele>327.3</ele>
        <time>2019-10-30T12:51:49Z</time>
      </trkpt>
      <trkpt lat="43.56566" lon="6.29366">
        <ele>327.6</ele>
        <time>2019-10-30T12:52:00Z</time>
      </trkpt>
      <trkpt lat="43.56567" lon="6.29379">
        <ele>328.1</ele>
        <time>2019-10-30T12:52:13Z</time>
      </trkpt>
      <trkpt lat="43.5657" lon="6.29392">
        <ele>329.1</ele>
        <time>2019-10-30T12:52:28Z</time>
      </trkpt>
      <trkpt lat="43.5657" lon="6.29405">
        <ele>329.1</ele>
        <time>2019-10-30T12:52:43Z</time>
      </trkpt>
      <trkpt lat="43.56567" lon="6.29417">
        <ele>330.4</ele>
        <time>2019-10-30T12:52:59Z</time>
      </trkpt>
      <trkpt lat="43.56566" lon="6.29429">
        <ele>330.8</ele>
        <time>2019-10-30T12:53:10Z</time>
      </trkpt>
      <trkpt lat="43.56563" lon="6.29441">
        <ele>330.7</ele>
        <time>2019-10-30T12:53:21Z</time>
      </trkpt>
      <trkpt lat="43.56558" lon="6.29453">
        <ele>331.1</ele>
        <time>2019-10-30T12:53:31Z</time>
      </trkpt>
      <trkpt lat="43.56553" lon="6.29463">
        <ele>331.2</ele>
        <time>2019-10-30T12:53:39Z</time>
      </trkpt>
      <trkpt lat="43.56549" lon="6.29475">
        <ele>330.9</ele>
        <time>2019-10-30T12:53:48Z</time>
      </trkpt>
      <trkpt lat="43.56545" lon="6.29487">
        <ele>331.6</ele>
        <time>2019-10-30T12:53:58Z</time>
      </trkpt>
      <trkpt lat="43.5654" lon="6.29497">
        <ele>331.8</ele>
        <time>2019-10-30T12:54:06Z</time>
      </trkpt>
      <trkpt lat="43.56532" lon="6.29505">
        <ele>331.8</ele>
        <time>2019-10-30T12:54:15Z</time>
      </trkpt>
      <trkpt lat="43.56526" lon="6.29513">
        <ele>332.4</ele>
        <time>2019-10-30T12:54:26Z</time>
      </trkpt>
      <trkpt lat="43.56518" lon="6.2952">
        <ele>332.1</ele>
        <time>2019-10-30T12:54:34Z</time>
      </trkpt>
      <trkpt lat="43.5651" lon="6.29529">
        <ele>333.2</ele>
        <time>2019-10-30T12:54:46Z</time>
      </trkpt>
      <trkpt lat="43.56504" lon="6.29538">
        <ele>333.6</ele>
        <time>2019-10-30T12:54:56Z</time>
      </trkpt>
      <trkpt lat="43.565" lon="6.2955">
        <ele>333.9</ele>
        <time>2019-10-30T12:55:06Z</time>
      </trkpt>
      <trkpt lat="43.56496" lon="6.29563">
        <ele>334.2</ele>
        <time>2019-10-30T12:55:15Z</time>
      </trkpt>
      <trkpt lat="43.56492" lon="6.29575">
        <ele>334.6</ele>
        <time>2019-10-30T12:55:24Z</time>
      </trkpt>
      <trkpt lat="43.56487" lon="6.29586">
        <ele>335.3</ele>
        <time>2019-10-30T12:55:33Z</time>
      </trkpt>
      <trkpt lat="43.56482" lon="6.29598">
        <ele>335.7</ele>
        <time>2019-10-30T12:55:43Z</time>
      </trkpt>
      <trkpt lat="43.56477" lon="6.29609">
        <ele>336.2</ele>
        <time>2019-10-30T12:55:53Z</time>
      </trkpt>
      <trkpt lat="43.56472" lon="6.2962">
        <ele>336.6</ele>
        <time>2019-10-30T12:56:02Z</time>
      </trkpt>
      <trkpt lat="43.56469" lon="6.29633">
        <ele>337.1</ele>
        <time>2019-10-30T12:56:12Z</time>
      </trkpt>
      <trkpt lat="43.56466" lon="6.29645">
        <ele>337</ele>
        <time>2019-10-30T12:56:22Z</time>
      </trkpt>
      <trkpt lat="43.56463" lon="6.29658">
        <ele>338.2</ele>
        <time>2019-10-30T12:56:31Z</time>
      </trkpt>
      <trkpt lat="43.56462" lon="6.29671">
        <ele>338.5</ele>
        <time>2019-10-30T12:56:40Z</time>
      </trkpt>
      <trkpt lat="43.56461" lon="6.29684">
        <ele>339.7</ele>
        <time>2019-10-30T12:57:02Z</time>
      </trkpt>
      <trkpt lat="43.56457" lon="6.29695">
        <ele>339.8</ele>
        <time>2019-10-30T12:57:15Z</time>
      </trkpt>
      <trkpt lat="43.56453" lon="6.29708">
        <ele>340.5</ele>
        <time>2019-10-30T12:57:26Z</time>
      </trkpt>
      <trkpt lat="43.56451" lon="6.2972">
        <ele>341.1</ele>
        <time>2019-10-30T12:57:37Z</time>
      </trkpt>
      <trkpt lat="43.56446" lon="6.29732">
        <ele>342.1</ele>
        <time>2019-10-30T12:57:50Z</time>
      </trkpt>
      <trkpt lat="43.56441" lon="6.29742">
        <ele>342.6</ele>
        <time>2019-10-30T12:57:58Z</time>
      </trkpt>
      <trkpt lat="43.56438" lon="6.29755">
        <ele>343</ele>
        <time>2019-10-30T12:58:07Z</time>
      </trkpt>
      <trkpt lat="43.56439" lon="6.29769">
        <ele>343.3</ele>
        <time>2019-10-30T12:58:17Z</time>
      </trkpt>
      <trkpt lat="43.56437" lon="6.29781">
        <ele>343.2</ele>
        <time>2019-10-30T12:58:26Z</time>
      </trkpt>
      <trkpt lat="43.56434" lon="6.29793">
        <ele>343</ele>
        <time>2019-10-30T12:58:34Z</time>
      </trkpt>
      <trkpt lat="43.5643" lon="6.29805">
        <ele>343.4</ele>
        <time>2019-10-30T12:58:42Z</time>
      </trkpt>
      <trkpt lat="43.56426" lon="6.29817">
        <ele>343.5</ele>
        <time>2019-10-30T12:58:51Z</time>
      </trkpt>
      <trkpt lat="43.56422" lon="6.29829">
        <ele>344</ele>
        <time>2019-10-30T12:59:01Z</time>
      </trkpt>
      <trkpt lat="43.56417" lon="6.29841">
        <ele>344.5</ele>
        <time>2019-10-30T12:59:10Z</time>
      </trkpt>
      <trkpt lat="43.56413" lon="6.29852">
        <ele>345</ele>
        <time>2019-10-30T12:59:19Z</time>
      </trkpt>
      <trkpt lat="43.56408" lon="6.29864">
        <ele>345.6</ele>
        <time>2019-10-30T12:59:28Z</time>
      </trkpt>
      <trkpt lat="43.56404" lon="6.29876">
        <ele>346</ele>
        <time>2019-10-30T12:59:38Z</time>
      </trkpt>
      <trkpt lat="43.56398" lon="6.29886">
        <ele>346.6</ele>
        <time>2019-10-30T12:59:47Z</time>
      </trkpt>
      <trkpt lat="43.56393" lon="6.29898">
        <ele>346.9</ele>
        <time>2019-10-30T12:59:57Z</time>
      </trkpt>
      <trkpt lat="43.56387" lon="6.29909">
        <ele>347.5</ele>
        <time>2019-10-30T13:00:05Z</time>
      </trkpt>
      <trkpt lat="43.56383" lon="6.29921">
        <ele>347.6</ele>
        <time>2019-10-30T13:00:15Z</time>
      </trkpt>
      <trkpt lat="43.56378" lon="6.29932">
        <ele>348</ele>
        <time>2019-10-30T13:00:24Z</time>
      </trkpt>
      <trkpt lat="43.56371" lon="6.29941">
        <ele>348.3</ele>
        <time>2019-10-30T13:00:33Z</time>
      </trkpt>
      <trkpt lat="43.56364" lon="6.29949">
        <ele>348.5</ele>
        <time>2019-10-30T13:00:41Z</time>
      </trkpt>
      <trkpt lat="43.5636" lon="6.29961">
        <ele>349.3</ele>
        <time>2019-10-30T13:00:53Z</time>
      </trkpt>
      <trkpt lat="43.56358" lon="6.29974">
        <ele>350</ele>
        <time>2019-10-30T13:01:03Z</time>
      </trkpt>
      <trkpt lat="43.56354" lon="6.29986">
        <ele>350.6</ele>
        <time>2019-10-30T13:01:16Z</time>
      </trkpt>
      <trkpt lat="43.56352" lon="6.29999">
        <ele>351.1</ele>
        <time>2019-10-30T13:01:30Z</time>
      </trkpt>
      <trkpt lat="43.56346" lon="6.30009">
        <ele>351.3</ele>
        <time>2019-10-30T13:01:40Z</time>
      </trkpt>
      <trkpt lat="43.56342" lon="6.3002">
        <ele>351.5</ele>
        <time>2019-10-30T13:01:50Z</time>
      </trkpt>
      <trkpt lat="43.56337" lon="6.30032">
        <ele>351.8</ele>
        <time>2019-10-30T13:02:01Z</time>
      </trkpt>
      <trkpt lat="43.56337" lon="6.30045">
        <ele>353.1</ele>
        <time>2019-10-30T13:02:15Z</time>
      </trkpt>
      <trkpt lat="43.5634" lon="6.30058">
        <ele>353.8</ele>
        <time>2019-10-30T13:02:25Z</time>
      </trkpt>
      <trkpt lat="43.5634" lon="6.30071">
        <ele>355.2</ele>
        <time>2019-10-30T13:02:38Z</time>
      </trkpt>
      <trkpt lat="43.56343" lon="6.30083">
        <ele>357.2</ele>
        <time>2019-10-30T13:02:52Z</time>
      </trkpt>
      <trkpt lat="43.56347" lon="6.30096">
        <ele>358.1</ele>
        <time>2019-10-30T13:03:02Z</time>
      </trkpt>
      <trkpt lat="43.56352" lon="6.30106">
        <ele>359.7</ele>
        <time>2019-10-30T13:03:17Z</time>
      </trkpt>
      <trkpt lat="43.56356" lon="6.30118">
        <ele>361</ele>
        <time>2019-10-30T13:03:33Z</time>
      </trkpt>
      <trkpt lat="43.56359" lon="6.3013">
        <ele>362.1</ele>
        <time>2019-10-30T13:03:45Z</time>
      </trkpt>
      <trkpt lat="43.56361" lon="6.30143">
        <ele>363.1</ele>
        <time>2019-10-30T13:03:55Z</time>
      </trkpt>
      <trkpt lat="43.56357" lon="6.30156">
        <ele>364.4</ele>
        <time>2019-10-30T13:04:07Z</time>
      </trkpt>
      <trkpt lat="43.56353" lon="6.30167">
        <ele>364.8</ele>
        <time>2019-10-30T13:04:19Z</time>
      </trkpt>
      <trkpt lat="43.56351" lon="6.3018">
        <ele>365.9</ele>
        <time>2019-10-30T13:04:30Z</time>
      </trkpt>
      <trkpt lat="43.56345" lon="6.30191">
        <ele>367.5</ele>
        <time>2019-10-30T13:04:44Z</time>
      </trkpt>
      <trkpt lat="43.56339" lon="6.30201">
        <ele>367.9</ele>
        <time>2019-10-30T13:04:56Z</time>
      </trkpt>
      <trkpt lat="43.56331" lon="6.30206">
        <ele>367.2</ele>
        <time>2019-10-30T13:05:09Z</time>
      </trkpt>
      <trkpt lat="43.56321" lon="6.30207">
        <ele>367</ele>
        <time>2019-10-30T13:05:16Z</time>
      </trkpt>
      <trkpt lat="43.56311" lon="6.3021">
        <ele>366.6</ele>
        <time>2019-10-30T13:05:23Z</time>
      </trkpt>
      <trkpt lat="43.56302" lon="6.30214">
        <ele>366.9</ele>
        <time>2019-10-30T13:05:29Z</time>
      </trkpt>
      <trkpt lat="43.56293" lon="6.30217">
        <ele>366.9</ele>
        <time>2019-10-30T13:05:36Z</time>
      </trkpt>
      <trkpt lat="43.56285" lon="6.30222">
        <ele>366.6</ele>
        <time>2019-10-30T13:05:45Z</time>
      </trkpt>
      <trkpt lat="43.56276" lon="6.30225">
        <ele>366.5</ele>
        <time>2019-10-30T13:05:55Z</time>
      </trkpt>
      <trkpt lat="43.56268" lon="6.30229">
        <ele>367</ele>
        <time>2019-10-30T13:06:02Z</time>
      </trkpt>
      <trkpt lat="43.56258" lon="6.30231">
        <ele>366.7</ele>
        <time>2019-10-30T13:06:10Z</time>
      </trkpt>
      <trkpt lat="43.56248" lon="6.30231">
        <ele>366.9</ele>
        <time>2019-10-30T13:06:18Z</time>
      </trkpt>
      <trkpt lat="43.56239" lon="6.30232">
        <ele>367.1</ele>
        <time>2019-10-30T13:06:25Z</time>
      </trkpt>
      <trkpt lat="43.5623" lon="6.30232">
        <ele>367.3</ele>
        <time>2019-10-30T13:06:33Z</time>
      </trkpt>
      <trkpt lat="43.56221" lon="6.30234">
        <ele>367.2</ele>
        <time>2019-10-30T13:06:41Z</time>
      </trkpt>
      <trkpt lat="43.56211" lon="6.30237">
        <ele>367.9</ele>
        <time>2019-10-30T13:06:49Z</time>
      </trkpt>
      <trkpt lat="43.56201" lon="6.30237">
        <ele>368.3</ele>
        <time>2019-10-30T13:06:58Z</time>
      </trkpt>
      <trkpt lat="43.56192" lon="6.30233">
        <ele>368.7</ele>
        <time>2019-10-30T13:07:08Z</time>
      </trkpt>
      <trkpt lat="43.56183" lon="6.30233">
        <ele>369.1</ele>
        <time>2019-10-30T13:07:21Z</time>
      </trkpt>
      <trkpt lat="43.56174" lon="6.30239">
        <ele>368.7</ele>
        <time>2019-10-30T13:07:31Z</time>
      </trkpt>
      <trkpt lat="43.56166" lon="6.30245">
        <ele>368.9</ele>
        <time>2019-10-30T13:07:42Z</time>
      </trkpt>
      <trkpt lat="43.56158" lon="6.30252">
        <ele>367.9</ele>
        <time>2019-10-30T13:07:53Z</time>
      </trkpt>
      <trkpt lat="43.56152" lon="6.30261">
        <ele>368.1</ele>
        <time>2019-10-30T13:08:04Z</time>
      </trkpt>
      <trkpt lat="43.56146" lon="6.30272">
        <ele>367.5</ele>
        <time>2019-10-30T13:08:13Z</time>
      </trkpt>
      <trkpt lat="43.56142" lon="6.30282">
        <ele>367.2</ele>
        <time>2019-10-30T13:08:24Z</time>
      </trkpt>
      <trkpt lat="43.56136" lon="6.30292">
        <ele>366.9</ele>
        <time>2019-10-30T13:08:32Z</time>
      </trkpt>
      <trkpt lat="43.56131" lon="6.30303">
        <ele>366.8</ele>
        <time>2019-10-30T13:08:40Z</time>
      </trkpt>
      <trkpt lat="43.56129" lon="6.30316">
        <ele>366.6</ele>
        <time>2019-10-30T13:08:51Z</time>
      </trkpt>
      <trkpt lat="43.56127" lon="6.30329">
        <ele>367.1</ele>
        <time>2019-10-30T13:09:01Z</time>
      </trkpt>
      <trkpt lat="43.56125" lon="6.30342">
        <ele>367.2</ele>
        <time>2019-10-30T13:09:10Z</time>
      </trkpt>
      <trkpt lat="43.56125" lon="6.30355">
        <ele>366.6</ele>
        <time>2019-10-30T13:09:19Z</time>
      </trkpt>
      <trkpt lat="43.56123" lon="6.30369">
        <ele>366.5</ele>
        <time>2019-10-30T13:09:27Z</time>
      </trkpt>
      <trkpt lat="43.56123" lon="6.30382">
        <ele>366.5</ele>
        <time>2019-10-30T13:09:37Z</time>
      </trkpt>
      <trkpt lat="43.56122" lon="6.30396">
        <ele>366.9</ele>
        <time>2019-10-30T13:09:49Z</time>
      </trkpt>
      <trkpt lat="43.56121" lon="6.3041">
        <ele>367.1</ele>
        <time>2019-10-30T13:09:58Z</time>
      </trkpt>
      <trkpt lat="43.56118" lon="6.30423">
        <ele>366.6</ele>
        <time>2019-10-30T13:10:05Z</time>
      </trkpt>
      <trkpt lat="43.56116" lon="6.30436">
        <ele>366.7</ele>
        <time>2019-10-30T13:10:15Z</time>
      </trkpt>
      <trkpt lat="43.56114" lon="6.30448">
        <ele>366.9</ele>
        <time>2019-10-30T13:10:23Z</time>
      </trkpt>
      <trkpt lat="43.56112" lon="6.30462">
        <ele>367.3</ele>
        <time>2019-10-30T13:10:33Z</time>
      </trkpt>
      <trkpt lat="43.56108" lon="6.30474">
        <ele>367.8</ele>
        <time>2019-10-30T13:10:42Z</time>
      </trkpt>
      <trkpt lat="43.56105" lon="6.30486">
        <ele>367.9</ele>
        <time>2019-10-30T13:10:52Z</time>
      </trkpt>
      <trkpt lat="43.56103" lon="6.30499">
        <ele>368.1</ele>
        <time>2019-10-30T13:11:04Z</time>
      </trkpt>
      <trkpt lat="43.561" lon="6.30512">
        <ele>368.6</ele>
        <time>2019-10-30T13:11:15Z</time>
      </trkpt>
      <trkpt lat="43.56096" lon="6.30524">
        <ele>368.3</ele>
        <time>2019-10-30T13:11:25Z</time>
      </trkpt>
      <trkpt lat="43.56093" lon="6.30536">
        <ele>368.4</ele>
        <time>2019-10-30T13:11:35Z</time>
      </trkpt>
      <trkpt lat="43.5609" lon="6.30548">
        <ele>369</ele>
        <time>2019-10-30T13:11:44Z</time>
      </trkpt>
      <trkpt lat="43.56086" lon="6.3056">
        <ele>369.7</ele>
        <time>2019-10-30T13:11:54Z</time>
      </trkpt>
      <trkpt lat="43.56085" lon="6.30573">
        <ele>369.8</ele>
        <time>2019-10-30T13:12:04Z</time>
      </trkpt>
      <trkpt lat="43.56083" lon="6.30587">
        <ele>370.1</ele>
        <time>2019-10-30T13:12:15Z</time>
      </trkpt>
      <trkpt lat="43.56079" lon="6.30598">
        <ele>371</ele>
        <time>2019-10-30T13:12:25Z</time>
      </trkpt>
      <trkpt lat="43.56077" lon="6.30612">
        <ele>372.1</ele>
        <time>2019-10-30T13:12:35Z</time>
      </trkpt>
      <trkpt lat="43.56073" lon="6.30624">
        <ele>373.8</ele>
        <time>2019-10-30T13:12:47Z</time>
      </trkpt>
      <trkpt lat="43.5607" lon="6.30636">
        <ele>374.1</ele>
        <time>2019-10-30T13:12:58Z</time>
      </trkpt>
      <trkpt lat="43.56068" lon="6.30649">
        <ele>375.1</ele>
        <time>2019-10-30T13:13:08Z</time>
      </trkpt>
      <trkpt lat="43.56067" lon="6.30661">
        <ele>376</ele>
        <time>2019-10-30T13:13:17Z</time>
      </trkpt>
      <trkpt lat="43.56066" lon="6.30674">
        <ele>376.5</ele>
        <time>2019-10-30T13:13:27Z</time>
      </trkpt>
      <trkpt lat="43.56061" lon="6.30684">
        <ele>376.6</ele>
        <time>2019-10-30T13:13:36Z</time>
      </trkpt>
      <trkpt lat="43.56056" lon="6.30695">
        <ele>377</ele>
        <time>2019-10-30T13:13:45Z</time>
      </trkpt>
      <trkpt lat="43.56051" lon="6.30706">
        <ele>376.5</ele>
        <time>2019-10-30T13:13:55Z</time>
      </trkpt>
      <trkpt lat="43.56046" lon="6.30718">
        <ele>376.8</ele>
        <time>2019-10-30T13:14:04Z</time>
      </trkpt>
      <trkpt lat="43.56042" lon="6.30729">
        <ele>377.9</ele>
        <time>2019-10-30T13:14:13Z</time>
      </trkpt>
      <trkpt lat="43.56038" lon="6.30741">
        <ele>378.5</ele>
        <time>2019-10-30T13:14:21Z</time>
      </trkpt>
      <trkpt lat="43.56035" lon="6.30753">
        <ele>379</ele>
        <time>2019-10-30T13:14:30Z</time>
      </trkpt>
      <trkpt lat="43.56031" lon="6.30765">
        <ele>379.2</ele>
        <time>2019-10-30T13:14:38Z</time>
      </trkpt>
      <trkpt lat="43.56027" lon="6.30776">
        <ele>378.8</ele>
        <time>2019-10-30T13:14:47Z</time>
      </trkpt>
      <trkpt lat="43.56023" lon="6.30788">
        <ele>379.1</ele>
        <time>2019-10-30T13:14:57Z</time>
      </trkpt>
      <trkpt lat="43.56022" lon="6.30801">
        <ele>378.7</ele>
        <time>2019-10-30T13:15:07Z</time>
      </trkpt>
      <trkpt lat="43.56019" lon="6.30813">
        <ele>379</ele>
        <time>2019-10-30T13:15:16Z</time>
      </trkpt>
      <trkpt lat="43.56019" lon="6.30826">
        <ele>378.6</ele>
        <time>2019-10-30T13:15:25Z</time>
      </trkpt>
      <trkpt lat="43.5602" lon="6.30839">
        <ele>378.7</ele>
        <time>2019-10-30T13:15:34Z</time>
      </trkpt>
      <trkpt lat="43.56021" lon="6.30852">
        <ele>378.5</ele>
        <time>2019-10-30T13:15:43Z</time>
      </trkpt>
      <trkpt lat="43.56023" lon="6.30865">
        <ele>379.3</ele>
        <time>2019-10-30T13:15:54Z</time>
      </trkpt>
      <trkpt lat="43.56027" lon="6.30877">
        <ele>380</ele>
        <time>2019-10-30T13:16:02Z</time>
      </trkpt>
      <trkpt lat="43.56029" lon="6.3089">
        <ele>380.8</ele>
        <time>2019-10-30T13:16:12Z</time>
      </trkpt>
      <trkpt lat="43.56033" lon="6.30902">
        <ele>381.8</ele>
        <time>2019-10-30T13:16:23Z</time>
      </trkpt>
      <trkpt lat="43.56039" lon="6.30912">
        <ele>382.5</ele>
        <time>2019-10-30T13:16:35Z</time>
      </trkpt>
      <trkpt lat="43.56044" lon="6.30923">
        <ele>382.6</ele>
        <time>2019-10-30T13:16:48Z</time>
      </trkpt>
      <trkpt lat="43.56047" lon="6.30935">
        <ele>382.8</ele>
        <time>2019-10-30T13:16:57Z</time>
      </trkpt>
      <trkpt lat="43.56051" lon="6.30947">
        <ele>382.8</ele>
        <time>2019-10-30T13:17:05Z</time>
      </trkpt>
      <trkpt lat="43.56055" lon="6.30959">
        <ele>383.1</ele>
        <time>2019-10-30T13:17:15Z</time>
      </trkpt>
      <trkpt lat="43.56058" lon="6.30972">
        <ele>382.7</ele>
        <time>2019-10-30T13:17:24Z</time>
      </trkpt>
      <trkpt lat="43.56061" lon="6.30984">
        <ele>382.4</ele>
        <time>2019-10-30T13:17:31Z</time>
      </trkpt>
      <trkpt lat="43.56064" lon="6.30997">
        <ele>382.5</ele>
        <time>2019-10-30T13:17:40Z</time>
      </trkpt>
      <trkpt lat="43.56066" lon="6.3101">
        <ele>383</ele>
        <time>2019-10-30T13:17:51Z</time>
      </trkpt>
      <trkpt lat="43.56069" lon="6.31023">
        <ele>383.2</ele>
        <time>2019-10-30T13:18:00Z</time>
      </trkpt>
      <trkpt lat="43.56074" lon="6.31034">
        <ele>383.7</ele>
        <time>2019-10-30T13:18:12Z</time>
      </trkpt>
      <trkpt lat="43.56077" lon="6.31045">
        <ele>384</ele>
        <time>2019-10-30T13:18:20Z</time>
      </trkpt>
      <trkpt lat="43.5608" lon="6.31058">
        <ele>384.7</ele>
        <time>2019-10-30T13:18:28Z</time>
      </trkpt>
      <trkpt lat="43.56083" lon="6.3107">
        <ele>385</ele>
        <time>2019-10-30T13:18:35Z</time>
      </trkpt>
      <trkpt lat="43.56086" lon="6.31082">
        <ele>385.3</ele>
        <time>2019-10-30T13:18:43Z</time>
      </trkpt>
      <trkpt lat="43.56087" lon="6.31095">
        <ele>386</ele>
        <time>2019-10-30T13:18:55Z</time>
      </trkpt>
      <trkpt lat="43.56089" lon="6.31108">
        <ele>386.4</ele>
        <time>2019-10-30T13:19:04Z</time>
      </trkpt>
      <trkpt lat="43.56092" lon="6.31121">
        <ele>386.4</ele>
        <time>2019-10-30T13:19:14Z</time>
      </trkpt>
      <trkpt lat="43.56096" lon="6.31132">
        <ele>387.1</ele>
        <time>2019-10-30T13:19:24Z</time>
      </trkpt>
      <trkpt lat="43.56101" lon="6.31143">
        <ele>387.1</ele>
        <time>2019-10-30T13:19:33Z</time>
      </trkpt>
      <trkpt lat="43.56108" lon="6.31152">
        <ele>386.9</ele>
        <time>2019-10-30T13:19:43Z</time>
      </trkpt>
      <trkpt lat="43.56115" lon="6.3116">
        <ele>387.6</ele>
        <time>2019-10-30T13:20:21Z</time>
      </trkpt>
      <trkpt lat="43.56123" lon="6.31167">
        <ele>388.1</ele>
        <time>2019-10-30T13:20:34Z</time>
      </trkpt>
      <trkpt lat="43.56129" lon="6.31177">
        <ele>388.5</ele>
        <time>2019-10-30T13:20:48Z</time>
      </trkpt>
      <trkpt lat="43.56131" lon="6.3119">
        <ele>389.3</ele>
        <time>2019-10-30T13:21:00Z</time>
      </trkpt>
      <trkpt lat="43.56129" lon="6.31203">
        <ele>389.3</ele>
        <time>2019-10-30T13:21:13Z</time>
      </trkpt>
      <trkpt lat="43.56127" lon="6.31216">
        <ele>390.3</ele>
        <time>2019-10-30T13:21:27Z</time>
      </trkpt>
      <trkpt lat="43.56127" lon="6.31229">
        <ele>391.4</ele>
        <time>2019-10-30T13:22:00Z</time>
      </trkpt>
      <trkpt lat="43.56135" lon="6.31236">
        <ele>391.2</ele>
        <time>2019-10-30T13:22:19Z</time>
      </trkpt>
      <trkpt lat="43.56144" lon="6.31241">
        <ele>391.2</ele>
        <time>2019-10-30T13:22:29Z</time>
      </trkpt>
      <trkpt lat="43.5615" lon="6.31251">
        <ele>391.7</ele>
        <time>2019-10-30T13:22:40Z</time>
      </trkpt>
      <trkpt lat="43.56152" lon="6.31263">
        <ele>392.1</ele>
        <time>2019-10-30T13:22:55Z</time>
      </trkpt>
      <trkpt lat="43.56151" lon="6.31277">
        <ele>392.3</ele>
        <time>2019-10-30T13:23:05Z</time>
      </trkpt>
      <trkpt lat="43.56151" lon="6.3129">
        <ele>392.3</ele>
        <time>2019-10-30T13:23:16Z</time>
      </trkpt>
      <trkpt lat="43.56153" lon="6.31303">
        <ele>393.8</ele>
        <time>2019-10-30T13:23:27Z</time>
      </trkpt>
      <trkpt lat="43.56157" lon="6.31315">
        <ele>394</ele>
        <time>2019-10-30T13:23:38Z</time>
      </trkpt>
      <trkpt lat="43.56161" lon="6.31326">
        <ele>393.9</ele>
        <time>2019-10-30T13:23:47Z</time>
      </trkpt>
      <trkpt lat="43.56167" lon="6.31337">
        <ele>393.6</ele>
        <time>2019-10-30T13:23:57Z</time>
      </trkpt>
      <trkpt lat="43.56172" lon="6.31348">
        <ele>393.9</ele>
        <time>2019-10-30T13:24:10Z</time>
      </trkpt>
      <trkpt lat="43.56176" lon="6.31359">
        <ele>394.7</ele>
        <time>2019-10-30T13:24:23Z</time>
      </trkpt>
      <trkpt lat="43.56184" lon="6.31368">
        <ele>395</ele>
        <time>2019-10-30T13:24:35Z</time>
      </trkpt>
      <trkpt lat="43.56191" lon="6.31376">
        <ele>395.6</ele>
        <time>2019-10-30T13:24:47Z</time>
      </trkpt>
      <trkpt lat="43.56194" lon="6.31388">
        <ele>396.4</ele>
        <time>2019-10-30T13:25:01Z</time>
      </trkpt>
      <trkpt lat="43.56198" lon="6.31399">
        <ele>396.8</ele>
        <time>2019-10-30T13:25:12Z</time>
      </trkpt>
      <trkpt lat="43.56205" lon="6.31409">
        <ele>397.7</ele>
        <time>2019-10-30T13:25:22Z</time>
      </trkpt>
      <trkpt lat="43.56208" lon="6.31421">
        <ele>398.7</ele>
        <time>2019-10-30T13:25:33Z</time>
      </trkpt>
      <trkpt lat="43.56213" lon="6.31432">
        <ele>399.5</ele>
        <time>2019-10-30T13:25:46Z</time>
      </trkpt>
      <trkpt lat="43.56217" lon="6.31444">
        <ele>400.1</ele>
        <time>2019-10-30T13:25:57Z</time>
      </trkpt>
      <trkpt lat="43.56222" lon="6.31455">
        <ele>400.1</ele>
        <time>2019-10-30T13:26:07Z</time>
      </trkpt>
      <trkpt lat="43.56226" lon="6.31467">
        <ele>400</ele>
        <time>2019-10-30T13:26:16Z</time>
      </trkpt>
      <trkpt lat="43.56229" lon="6.31479">
        <ele>399.8</ele>
        <time>2019-10-30T13:26:29Z</time>
      </trkpt>
      <trkpt lat="43.56234" lon="6.3149">
        <ele>398.6</ele>
        <time>2019-10-30T13:27:15Z</time>
      </trkpt>
      <trkpt lat="43.56242" lon="6.31487">
        <ele>399.2</ele>
        <time>2019-10-30T13:29:15Z</time>
      </trkpt>
      <trkpt lat="43.56241" lon="6.315">
        <ele>398.8</ele>
        <time>2019-10-30T13:30:17Z</time>
      </trkpt>
      <trkpt lat="43.56243" lon="6.31512">
        <ele>398.6</ele>
        <time>2019-10-30T13:30:27Z</time>
      </trkpt>
      <trkpt lat="43.56244" lon="6.31525">
        <ele>398.1</ele>
        <time>2019-10-30T13:30:37Z</time>
      </trkpt>
      <trkpt lat="43.56247" lon="6.31538">
        <ele>398.4</ele>
        <time>2019-10-30T13:30:46Z</time>
      </trkpt>
      <trkpt lat="43.5625" lon="6.31551">
        <ele>398.3</ele>
        <time>2019-10-30T13:30:55Z</time>
      </trkpt>
      <trkpt lat="43.56254" lon="6.31562">
        <ele>398.7</ele>
        <time>2019-10-30T13:31:04Z</time>
      </trkpt>
      <trkpt lat="43.56259" lon="6.31574">
        <ele>399.2</ele>
        <time>2019-10-30T13:31:14Z</time>
      </trkpt>
      <trkpt lat="43.56265" lon="6.31585">
        <ele>399.7</ele>
        <time>2019-10-30T13:31:24Z</time>
      </trkpt>
      <trkpt lat="43.5627" lon="6.31596">
        <ele>400.3</ele>
        <time>2019-10-30T13:31:33Z</time>
      </trkpt>
      <trkpt lat="43.56276" lon="6.31608">
        <ele>400.3</ele>
        <time>2019-10-30T13:31:42Z</time>
      </trkpt>
      <trkpt lat="43.56285" lon="6.31611">
        <ele>400.7</ele>
        <time>2019-10-30T13:31:55Z</time>
      </trkpt>
      <trkpt lat="43.56293" lon="6.31606">
        <ele>401.1</ele>
        <time>2019-10-30T13:32:52Z</time>
      </trkpt>
      <trkpt lat="43.563" lon="6.31598">
        <ele>399.9</ele>
        <time>2019-10-30T13:33:44Z</time>
      </trkpt>
      <trkpt lat="43.56293" lon="6.31606">
        <ele>400.5</ele>
        <time>2019-10-30T13:35:44Z</time>
      </trkpt>
      <trkpt lat="43.56285" lon="6.31613">
        <ele>400.5</ele>
        <time>2019-10-30T13:35:56Z</time>
      </trkpt>
      <trkpt lat="43.56284" lon="6.31626">
        <ele>400.6</ele>
        <time>2019-10-30T13:36:10Z</time>
      </trkpt>
      <trkpt lat="43.56288" lon="6.31638">
        <ele>400.8</ele>
        <time>2019-10-30T13:36:19Z</time>
      </trkpt>
      <trkpt lat="43.5629" lon="6.3165">
        <ele>401.3</ele>
        <time>2019-10-30T13:36:30Z</time>
      </trkpt>
      <trkpt lat="43.56291" lon="6.31663">
        <ele>402.1</ele>
        <time>2019-10-30T13:36:44Z</time>
      </trkpt>
      <trkpt lat="43.56301" lon="6.31664">
        <ele>402.3</ele>
        <time>2019-10-30T13:37:21Z</time>
      </trkpt>
      <trkpt lat="43.56309" lon="6.3166">
        <ele>403</ele>
        <time>2019-10-30T13:37:32Z</time>
      </trkpt>
      <trkpt lat="43.56318" lon="6.31655">
        <ele>404.4</ele>
        <time>2019-10-30T13:37:45Z</time>
      </trkpt>
      <trkpt lat="43.56324" lon="6.31646">
        <ele>406.2</ele>
        <time>2019-10-30T13:38:00Z</time>
      </trkpt>
      <trkpt lat="43.56331" lon="6.31637">
        <ele>408.3</ele>
        <time>2019-10-30T13:38:16Z</time>
      </trkpt>
      <trkpt lat="43.56339" lon="6.31631">
        <ele>410</ele>
        <time>2019-10-30T13:38:28Z</time>
      </trkpt>
      <trkpt lat="43.56345" lon="6.3162">
        <ele>410.7</ele>
        <time>2019-10-30T13:38:40Z</time>
      </trkpt>
      <trkpt lat="43.5635" lon="6.31609">
        <ele>410.4</ele>
        <time>2019-10-30T13:38:51Z</time>
      </trkpt>
      <trkpt lat="43.56357" lon="6.316">
        <ele>409.6</ele>
        <time>2019-10-30T13:39:00Z</time>
      </trkpt>
      <trkpt lat="43.56365" lon="6.31593">
        <ele>408.9</ele>
        <time>2019-10-30T13:39:13Z</time>
      </trkpt>
      <trkpt lat="43.56373" lon="6.31586">
        <ele>408.4</ele>
        <time>2019-10-30T13:39:24Z</time>
      </trkpt>
      <trkpt lat="43.56382" lon="6.3158">
        <ele>408</ele>
        <time>2019-10-30T13:39:32Z</time>
      </trkpt>
      <trkpt lat="43.5639" lon="6.31575">
        <ele>408.1</ele>
        <time>2019-10-30T13:39:41Z</time>
      </trkpt>
      <trkpt lat="43.564" lon="6.31573">
        <ele>407</ele>
        <time>2019-10-30T13:39:51Z</time>
      </trkpt>
      <trkpt lat="43.56407" lon="6.31565">
        <ele>406</ele>
        <time>2019-10-30T13:40:02Z</time>
      </trkpt>
      <trkpt lat="43.56416" lon="6.31557">
        <ele>405.6</ele>
        <time>2019-10-30T13:40:12Z</time>
      </trkpt>
      <trkpt lat="43.56421" lon="6.31546">
        <ele>405.6</ele>
        <time>2019-10-30T13:40:22Z</time>
      </trkpt>
      <trkpt lat="43.56428" lon="6.31535">
        <ele>405.9</ele>
        <time>2019-10-30T13:40:34Z</time>
      </trkpt>
      <trkpt lat="43.56434" lon="6.31524">
        <ele>406.6</ele>
        <time>2019-10-30T13:40:43Z</time>
      </trkpt>
      <trkpt lat="43.56438" lon="6.31513">
        <ele>406.9</ele>
        <time>2019-10-30T13:40:53Z</time>
      </trkpt>
      <trkpt lat="43.56443" lon="6.31502">
        <ele>407.7</ele>
        <time>2019-10-30T13:41:06Z</time>
      </trkpt>
      <trkpt lat="43.56445" lon="6.31489">
        <ele>408.5</ele>
        <time>2019-10-30T13:41:19Z</time>
      </trkpt>
      <trkpt lat="43.56445" lon="6.31475">
        <ele>410.1</ele>
        <time>2019-10-30T13:41:31Z</time>
      </trkpt>
      <trkpt lat="43.56447" lon="6.31462">
        <ele>412.2</ele>
        <time>2019-10-30T13:41:44Z</time>
      </trkpt>
      <trkpt lat="43.56456" lon="6.31457">
        <ele>413.6</ele>
        <time>2019-10-30T13:41:54Z</time>
      </trkpt>
      <trkpt lat="43.56464" lon="6.31463">
        <ele>413.8</ele>
        <time>2019-10-30T13:42:05Z</time>
      </trkpt>
      <trkpt lat="43.56473" lon="6.31465">
        <ele>414</ele>
        <time>2019-10-30T13:42:14Z</time>
      </trkpt>
      <trkpt lat="43.56482" lon="6.31461">
        <ele>415.2</ele>
        <time>2019-10-30T13:42:25Z</time>
      </trkpt>
      <trkpt lat="43.56488" lon="6.31449">
        <ele>416</ele>
        <time>2019-10-30T13:42:36Z</time>
      </trkpt>
      <trkpt lat="43.56489" lon="6.31437">
        <ele>416.5</ele>
        <time>2019-10-30T13:42:46Z</time>
      </trkpt>
      <trkpt lat="43.56493" lon="6.31424">
        <ele>417.1</ele>
        <time>2019-10-30T13:42:57Z</time>
      </trkpt>
      <trkpt lat="43.56497" lon="6.31413">
        <ele>418.2</ele>
        <time>2019-10-30T13:43:09Z</time>
      </trkpt>
      <trkpt lat="43.56502" lon="6.31402">
        <ele>418.4</ele>
        <time>2019-10-30T13:43:18Z</time>
      </trkpt>
      <trkpt lat="43.56508" lon="6.31392">
        <ele>417.9</ele>
        <time>2019-10-30T13:43:29Z</time>
      </trkpt>
      <trkpt lat="43.56515" lon="6.31383">
        <ele>417.5</ele>
        <time>2019-10-30T13:43:36Z</time>
      </trkpt>
      <trkpt lat="43.56523" lon="6.31377">
        <ele>417.8</ele>
        <time>2019-10-30T13:43:45Z</time>
      </trkpt>
      <trkpt lat="43.56532" lon="6.3137">
        <ele>417.4</ele>
        <time>2019-10-30T13:43:56Z</time>
      </trkpt>
      <trkpt lat="43.5654" lon="6.31361">
        <ele>417.6</ele>
        <time>2019-10-30T13:44:04Z</time>
      </trkpt>
      <trkpt lat="43.56547" lon="6.31353">
        <ele>418.1</ele>
        <time>2019-10-30T13:44:15Z</time>
      </trkpt>
      <trkpt lat="43.56555" lon="6.31347">
        <ele>419.3</ele>
        <time>2019-10-30T13:44:26Z</time>
      </trkpt>
      <trkpt lat="43.56564" lon="6.31343">
        <ele>420.3</ele>
        <time>2019-10-30T13:44:36Z</time>
      </trkpt>
      <trkpt lat="43.56573" lon="6.31337">
        <ele>421.7</ele>
        <time>2019-10-30T13:44:46Z</time>
      </trkpt>
      <trkpt lat="43.56581" lon="6.3133">
        <ele>422.9</ele>
        <time>2019-10-30T13:44:58Z</time>
      </trkpt>
      <trkpt lat="43.56587" lon="6.31319">
        <ele>422.5</ele>
        <time>2019-10-30T13:45:06Z</time>
      </trkpt>
      <trkpt lat="43.56593" lon="6.31309">
        <ele>422.7</ele>
        <time>2019-10-30T13:45:14Z</time>
      </trkpt>
      <trkpt lat="43.566" lon="6.313">
        <ele>422.6</ele>
        <time>2019-10-30T13:45:22Z</time>
      </trkpt>
      <trkpt lat="43.56609" lon="6.31296">
        <ele>422.8</ele>
        <time>2019-10-30T13:45:32Z</time>
      </trkpt>
      <trkpt lat="43.56617" lon="6.31291">
        <ele>423.2</ele>
        <time>2019-10-30T13:45:40Z</time>
      </trkpt>
      <trkpt lat="43.56626" lon="6.31286">
        <ele>423.6</ele>
        <time>2019-10-30T13:45:48Z</time>
      </trkpt>
      <trkpt lat="43.56635" lon="6.31283">
        <ele>423.6</ele>
        <time>2019-10-30T13:45:55Z</time>
      </trkpt>
      <trkpt lat="43.56644" lon="6.31277">
        <ele>423.9</ele>
        <time>2019-10-30T13:46:03Z</time>
      </trkpt>
      <trkpt lat="43.56652" lon="6.31273">
        <ele>423.9</ele>
        <time>2019-10-30T13:46:12Z</time>
      </trkpt>
      <trkpt lat="43.56661" lon="6.3127">
        <ele>424.2</ele>
        <time>2019-10-30T13:46:21Z</time>
      </trkpt>
      <trkpt lat="43.56671" lon="6.31267">
        <ele>424.3</ele>
        <time>2019-10-30T13:46:30Z</time>
      </trkpt>
      <trkpt lat="43.5668" lon="6.31265">
        <ele>423.9</ele>
        <time>2019-10-30T13:46:39Z</time>
      </trkpt>
      <trkpt lat="43.56689" lon="6.31264">
        <ele>424</ele>
        <time>2019-10-30T13:46:50Z</time>
      </trkpt>
      <trkpt lat="43.56698" lon="6.3126">
        <ele>423.7</ele>
        <time>2019-10-30T13:46:59Z</time>
      </trkpt>
      <trkpt lat="43.56705" lon="6.31251">
        <ele>423</ele>
        <time>2019-10-30T13:47:10Z</time>
      </trkpt>
      <trkpt lat="43.56713" lon="6.31241">
        <ele>422.6</ele>
        <time>2019-10-30T13:47:19Z</time>
      </trkpt>
      <trkpt lat="43.56722" lon="6.31237">
        <ele>422.2</ele>
        <time>2019-10-30T13:47:28Z</time>
      </trkpt>
      <trkpt lat="43.56731" lon="6.31233">
        <ele>422.1</ele>
        <time>2019-10-30T13:47:36Z</time>
      </trkpt>
      <trkpt lat="43.5674" lon="6.31228">
        <ele>422.2</ele>
        <time>2019-10-30T13:47:45Z</time>
      </trkpt>
      <trkpt lat="43.56747" lon="6.31221">
        <ele>423.1</ele>
        <time>2019-10-30T13:47:55Z</time>
      </trkpt>
      <trkpt lat="43.56755" lon="6.31213">
        <ele>424.1</ele>
        <time>2019-10-30T13:48:05Z</time>
      </trkpt>
      <trkpt lat="43.5676" lon="6.31203">
        <ele>424.6</ele>
        <time>2019-10-30T13:48:15Z</time>
      </trkpt>
      <trkpt lat="43.56764" lon="6.31192">
        <ele>424.7</ele>
        <time>2019-10-30T13:48:24Z</time>
      </trkpt>
      <trkpt lat="43.56765" lon="6.31179">
        <ele>425.8</ele>
        <time>2019-10-30T13:48:53Z</time>
      </trkpt>
      <trkpt lat="43.56763" lon="6.31166">
        <ele>426.6</ele>
        <time>2019-10-30T13:51:54Z</time>
      </trkpt>
      <trkpt lat="43.56761" lon="6.31153">
        <ele>427.3</ele>
        <time>2019-10-30T13:52:06Z</time>
      </trkpt>
      <trkpt lat="43.56759" lon="6.3114">
        <ele>428.8</ele>
        <time>2019-10-30T13:52:19Z</time>
      </trkpt>
      <trkpt lat="43.56757" lon="6.31128">
        <ele>430.6</ele>
        <time>2019-10-30T13:52:31Z</time>
      </trkpt>
      <trkpt lat="43.56753" lon="6.31116">
        <ele>432.5</ele>
        <time>2019-10-30T13:52:45Z</time>
      </trkpt>
      <trkpt lat="43.56748" lon="6.31104">
        <ele>434.1</ele>
        <time>2019-10-30T13:53:00Z</time>
      </trkpt>
      <trkpt lat="43.56742" lon="6.31095">
        <ele>435.6</ele>
        <time>2019-10-30T13:53:12Z</time>
      </trkpt>
      <trkpt lat="43.56736" lon="6.31085">
        <ele>436.6</ele>
        <time>2019-10-30T13:53:23Z</time>
      </trkpt>
      <trkpt lat="43.56732" lon="6.31073">
        <ele>437.5</ele>
        <time>2019-10-30T13:53:34Z</time>
      </trkpt>
      <trkpt lat="43.56727" lon="6.31061">
        <ele>438.2</ele>
        <time>2019-10-30T13:53:45Z</time>
      </trkpt>
      <trkpt lat="43.56721" lon="6.31051">
        <ele>438.8</ele>
        <time>2019-10-30T13:53:55Z</time>
      </trkpt>
      <trkpt lat="43.56714" lon="6.31043">
        <ele>439.5</ele>
        <time>2019-10-30T13:54:04Z</time>
      </trkpt>
      <trkpt lat="43.56705" lon="6.31038">
        <ele>440.9</ele>
        <time>2019-10-30T13:54:18Z</time>
      </trkpt>
      <trkpt lat="43.56699" lon="6.31029">
        <ele>442.5</ele>
        <time>2019-10-30T13:54:31Z</time>
      </trkpt>
      <trkpt lat="43.56696" lon="6.31017">
        <ele>443.9</ele>
        <time>2019-10-30T13:54:44Z</time>
      </trkpt>
      <trkpt lat="43.56695" lon="6.31005">
        <ele>444.6</ele>
        <time>2019-10-30T13:54:53Z</time>
      </trkpt>
      <trkpt lat="43.56694" lon="6.30992">
        <ele>445.8</ele>
        <time>2019-10-30T13:55:04Z</time>
      </trkpt>
      <trkpt lat="43.56691" lon="6.30979">
        <ele>446.6</ele>
        <time>2019-10-30T13:55:13Z</time>
      </trkpt>
      <trkpt lat="43.56684" lon="6.30971">
        <ele>447.5</ele>
        <time>2019-10-30T13:55:23Z</time>
      </trkpt>
      <trkpt lat="43.56688" lon="6.3096">
        <ele>448.2</ele>
        <time>2019-10-30T13:55:37Z</time>
      </trkpt>
      <trkpt lat="43.56696" lon="6.30952">
        <ele>448.4</ele>
        <time>2019-10-30T13:55:45Z</time>
      </trkpt>
      <trkpt lat="43.56704" lon="6.30943">
        <ele>448.6</ele>
        <time>2019-10-30T13:55:53Z</time>
      </trkpt>
      <trkpt lat="43.56711" lon="6.30936">
        <ele>448.9</ele>
        <time>2019-10-30T13:56:02Z</time>
      </trkpt>
      <trkpt lat="43.5672" lon="6.30931">
        <ele>449.2</ele>
        <time>2019-10-30T13:56:12Z</time>
      </trkpt>
      <trkpt lat="43.56725" lon="6.30921">
        <ele>449.4</ele>
        <time>2019-10-30T13:56:28Z</time>
      </trkpt>
      <trkpt lat="43.56718" lon="6.3093">
        <ele>449.6</ele>
        <time>2019-10-30T13:56:56Z</time>
      </trkpt>
      <trkpt lat="43.56709" lon="6.30937">
        <ele>449.8</ele>
        <time>2019-10-30T13:57:08Z</time>
      </trkpt>
      <trkpt lat="43.56701" lon="6.30943">
        <ele>450</ele>
        <time>2019-10-30T13:57:17Z</time>
      </trkpt>
      <trkpt lat="43.56693" lon="6.30951">
        <ele>450</ele>
        <time>2019-10-30T13:57:27Z</time>
      </trkpt>
      <trkpt lat="43.56686" lon="6.30959">
        <ele>450.1</ele>
        <time>2019-10-30T13:57:37Z</time>
      </trkpt>
      <trkpt lat="43.56684" lon="6.30971">
        <ele>449.2</ele>
        <time>2019-10-30T13:57:53Z</time>
      </trkpt>
      <trkpt lat="43.56688" lon="6.30983">
        <ele>448.8</ele>
        <time>2019-10-30T13:58:09Z</time>
      </trkpt>
      <trkpt lat="43.56692" lon="6.30996">
        <ele>447.7</ele>
        <time>2019-10-30T13:58:22Z</time>
      </trkpt>
      <trkpt lat="43.56693" lon="6.31008">
        <ele>447.1</ele>
        <time>2019-10-30T13:58:30Z</time>
      </trkpt>
      <trkpt lat="43.56696" lon="6.3102">
        <ele>445.9</ele>
        <time>2019-10-30T13:58:42Z</time>
      </trkpt>
      <trkpt lat="43.56699" lon="6.31032">
        <ele>444.5</ele>
        <time>2019-10-30T13:58:56Z</time>
      </trkpt>
      <trkpt lat="43.56707" lon="6.3104">
        <ele>443.1</ele>
        <time>2019-10-30T13:59:07Z</time>
      </trkpt>
      <trkpt lat="43.56716" lon="6.31046">
        <ele>441.9</ele>
        <time>2019-10-30T13:59:19Z</time>
      </trkpt>
      <trkpt lat="43.56721" lon="6.31055">
        <ele>441.4</ele>
        <time>2019-10-30T13:59:28Z</time>
      </trkpt>
      <trkpt lat="43.56727" lon="6.31066">
        <ele>440.5</ele>
        <time>2019-10-30T13:59:40Z</time>
      </trkpt>
      <trkpt lat="43.56732" lon="6.31076">
        <ele>439.2</ele>
        <time>2019-10-30T13:59:53Z</time>
      </trkpt>
      <trkpt lat="43.56738" lon="6.31086">
        <ele>438.2</ele>
        <time>2019-10-30T14:00:05Z</time>
      </trkpt>
      <trkpt lat="43.56744" lon="6.31097">
        <ele>437.7</ele>
        <time>2019-10-30T14:00:16Z</time>
      </trkpt>
      <trkpt lat="43.5675" lon="6.31107">
        <ele>436.4</ele>
        <time>2019-10-30T14:00:31Z</time>
      </trkpt>
      <trkpt lat="43.56754" lon="6.31118">
        <ele>435.4</ele>
        <time>2019-10-30T14:00:46Z</time>
      </trkpt>
      <trkpt lat="43.56758" lon="6.3113">
        <ele>433.4</ele>
        <time>2019-10-30T14:01:01Z</time>
      </trkpt>
      <trkpt lat="43.5676" lon="6.31142">
        <ele>431.8</ele>
        <time>2019-10-30T14:01:12Z</time>
      </trkpt>
      <trkpt lat="43.56762" lon="6.31154">
        <ele>429.6</ele>
        <time>2019-10-30T14:01:27Z</time>
      </trkpt>
      <trkpt lat="43.56765" lon="6.31167">
        <ele>428.2</ele>
        <time>2019-10-30T14:01:40Z</time>
      </trkpt>
      <trkpt lat="43.56774" lon="6.31174">
        <ele>426.8</ele>
        <time>2019-10-30T14:01:50Z</time>
      </trkpt>
      <trkpt lat="43.56784" lon="6.31173">
        <ele>426.7</ele>
        <time>2019-10-30T14:01:58Z</time>
      </trkpt>
      <trkpt lat="43.56793" lon="6.31173">
        <ele>427</ele>
        <time>2019-10-30T14:02:07Z</time>
      </trkpt>
      <trkpt lat="43.56802" lon="6.31175">
        <ele>426.9</ele>
        <time>2019-10-30T14:02:15Z</time>
      </trkpt>
      <trkpt lat="43.5681" lon="6.31182">
        <ele>427.7</ele>
        <time>2019-10-30T14:02:39Z</time>
      </trkpt>
      <trkpt lat="43.56818" lon="6.31188">
        <ele>428.4</ele>
        <time>2019-10-30T14:03:00Z</time>
      </trkpt>
      <trkpt lat="43.56826" lon="6.31193">
        <ele>428.7</ele>
        <time>2019-10-30T14:03:10Z</time>
      </trkpt>
      <trkpt lat="43.56834" lon="6.31202">
        <ele>429.3</ele>
        <time>2019-10-30T14:03:20Z</time>
      </trkpt>
      <trkpt lat="43.56839" lon="6.31213">
        <ele>429.8</ele>
        <time>2019-10-30T14:03:33Z</time>
      </trkpt>
      <trkpt lat="43.56845" lon="6.31223">
        <ele>429.8</ele>
        <time>2019-10-30T14:03:47Z</time>
      </trkpt>
      <trkpt lat="43.56852" lon="6.31232">
        <ele>430.2</ele>
        <time>2019-10-30T14:03:57Z</time>
      </trkpt>
      <trkpt lat="43.56858" lon="6.31241">
        <ele>430.5</ele>
        <time>2019-10-30T14:04:07Z</time>
      </trkpt>
      <trkpt lat="43.56866" lon="6.31247">
        <ele>431.2</ele>
        <time>2019-10-30T14:04:17Z</time>
      </trkpt>
      <trkpt lat="43.56875" lon="6.31252">
        <ele>432.2</ele>
        <time>2019-10-30T14:04:27Z</time>
      </trkpt>
      <trkpt lat="43.56884" lon="6.31252">
        <ele>432.5</ele>
        <time>2019-10-30T14:04:38Z</time>
      </trkpt>
      <trkpt lat="43.56894" lon="6.31253">
        <ele>432.9</ele>
        <time>2019-10-30T14:04:50Z</time>
      </trkpt>
      <trkpt lat="43.56903" lon="6.31255">
        <ele>433</ele>
        <time>2019-10-30T14:05:02Z</time>
      </trkpt>
      <trkpt lat="43.56912" lon="6.31254">
        <ele>433.6</ele>
        <time>2019-10-30T14:05:13Z</time>
      </trkpt>
      <trkpt lat="43.56921" lon="6.31255">
        <ele>434.5</ele>
        <time>2019-10-30T14:05:26Z</time>
      </trkpt>
      <trkpt lat="43.56931" lon="6.31256">
        <ele>435.3</ele>
        <time>2019-10-30T14:05:37Z</time>
      </trkpt>
      <trkpt lat="43.5694" lon="6.31255">
        <ele>436.1</ele>
        <time>2019-10-30T14:05:47Z</time>
      </trkpt>
      <trkpt lat="43.5695" lon="6.31251">
        <ele>437.1</ele>
        <time>2019-10-30T14:05:58Z</time>
      </trkpt>
      <trkpt lat="43.56959" lon="6.31248">
        <ele>437.3</ele>
        <time>2019-10-30T14:06:08Z</time>
      </trkpt>
      <trkpt lat="43.56968" lon="6.31246">
        <ele>437.6</ele>
        <time>2019-10-30T14:06:18Z</time>
      </trkpt>
      <trkpt lat="43.56977" lon="6.31243">
        <ele>437.6</ele>
        <time>2019-10-30T14:06:27Z</time>
      </trkpt>
      <trkpt lat="43.56986" lon="6.3124">
        <ele>437.3</ele>
        <time>2019-10-30T14:06:36Z</time>
      </trkpt>
      <trkpt lat="43.56995" lon="6.31239">
        <ele>437.1</ele>
        <time>2019-10-30T14:06:46Z</time>
      </trkpt>
      <trkpt lat="43.57005" lon="6.31238">
        <ele>437.1</ele>
        <time>2019-10-30T14:06:57Z</time>
      </trkpt>
      <trkpt lat="43.57014" lon="6.31238">
        <ele>437.4</ele>
        <time>2019-10-30T14:07:08Z</time>
      </trkpt>
      <trkpt lat="43.57016" lon="6.31251">
        <ele>437.8</ele>
        <time>2019-10-30T14:07:23Z</time>
      </trkpt>
      <trkpt lat="43.57018" lon="6.31263">
        <ele>438</ele>
        <time>2019-10-30T14:07:34Z</time>
      </trkpt>
      <trkpt lat="43.57024" lon="6.31273">
        <ele>438.3</ele>
        <time>2019-10-30T14:07:43Z</time>
      </trkpt>
      <trkpt lat="43.57031" lon="6.31283">
        <ele>438.9</ele>
        <time>2019-10-30T14:07:52Z</time>
      </trkpt>
      <trkpt lat="43.57039" lon="6.31291">
        <ele>439.4</ele>
        <time>2019-10-30T14:08:02Z</time>
      </trkpt>
      <trkpt lat="43.57043" lon="6.31302">
        <ele>439.5</ele>
        <time>2019-10-30T14:08:13Z</time>
      </trkpt>
      <trkpt lat="43.57049" lon="6.31314">
        <ele>440.3</ele>
        <time>2019-10-30T14:08:24Z</time>
      </trkpt>
      <trkpt lat="43.5705" lon="6.31327">
        <ele>440.9</ele>
        <time>2019-10-30T14:08:35Z</time>
      </trkpt>
      <trkpt lat="43.57045" lon="6.31337">
        <ele>441.2</ele>
        <time>2019-10-30T14:08:45Z</time>
      </trkpt>
      <trkpt lat="43.57038" lon="6.31346">
        <ele>441.7</ele>
        <time>2019-10-30T14:08:54Z</time>
      </trkpt>
      <trkpt lat="43.57032" lon="6.31357">
        <ele>442.2</ele>
        <time>2019-10-30T14:09:04Z</time>
      </trkpt>
      <trkpt lat="43.57024" lon="6.31365">
        <ele>443.3</ele>
        <time>2019-10-30T14:09:13Z</time>
      </trkpt>
      <trkpt lat="43.57016" lon="6.31371">
        <ele>444.2</ele>
        <time>2019-10-30T14:09:23Z</time>
      </trkpt>
      <trkpt lat="43.57008" lon="6.31377">
        <ele>444.6</ele>
        <time>2019-10-30T14:09:35Z</time>
      </trkpt>
      <trkpt lat="43.57001" lon="6.31385">
        <ele>445.8</ele>
        <time>2019-10-30T14:09:47Z</time>
      </trkpt>
      <trkpt lat="43.56995" lon="6.31395">
        <ele>447.1</ele>
        <time>2019-10-30T14:09:58Z</time>
      </trkpt>
      <trkpt lat="43.56989" lon="6.31405">
        <ele>447.9</ele>
        <time>2019-10-30T14:10:07Z</time>
      </trkpt>
      <trkpt lat="43.56986" lon="6.31418">
        <ele>449.3</ele>
        <time>2019-10-30T14:10:21Z</time>
      </trkpt>
      <trkpt lat="43.56981" lon="6.3143">
        <ele>450.3</ele>
        <time>2019-10-30T14:10:30Z</time>
      </trkpt>
      <trkpt lat="43.56978" lon="6.31443">
        <ele>451.6</ele>
        <time>2019-10-30T14:10:42Z</time>
      </trkpt>
      <trkpt lat="43.56974" lon="6.31455">
        <ele>452.7</ele>
        <time>2019-10-30T14:10:53Z</time>
      </trkpt>
      <trkpt lat="43.5697" lon="6.31467">
        <ele>454</ele>
        <time>2019-10-30T14:11:06Z</time>
      </trkpt>
      <trkpt lat="43.5697" lon="6.3148">
        <ele>454.6</ele>
        <time>2019-10-30T14:11:17Z</time>
      </trkpt>
      <trkpt lat="43.5697" lon="6.31493">
        <ele>455.6</ele>
        <time>2019-10-30T14:11:27Z</time>
      </trkpt>
      <trkpt lat="43.56964" lon="6.31505">
        <ele>456.4</ele>
        <time>2019-10-30T14:11:35Z</time>
      </trkpt>
      <trkpt lat="43.56956" lon="6.31511">
        <ele>457.1</ele>
        <time>2019-10-30T14:11:46Z</time>
      </trkpt>
      <trkpt lat="43.56948" lon="6.31519">
        <ele>457.6</ele>
        <time>2019-10-30T14:11:55Z</time>
      </trkpt>
      <trkpt lat="43.56941" lon="6.31527">
        <ele>458</ele>
        <time>2019-10-30T14:12:06Z</time>
      </trkpt>
      <trkpt lat="43.56935" lon="6.31537">
        <ele>458.3</ele>
        <time>2019-10-30T14:12:17Z</time>
      </trkpt>
      <trkpt lat="43.56936" lon="6.3155">
        <ele>458.6</ele>
        <time>2019-10-30T14:12:27Z</time>
      </trkpt>
      <trkpt lat="43.56941" lon="6.31561">
        <ele>459.6</ele>
        <time>2019-10-30T14:12:37Z</time>
      </trkpt>
      <trkpt lat="43.5695" lon="6.31567">
        <ele>460.6</ele>
        <time>2019-10-30T14:12:48Z</time>
      </trkpt>
      <trkpt lat="43.56959" lon="6.31572">
        <ele>461.4</ele>
        <time>2019-10-30T14:12:58Z</time>
      </trkpt>
      <trkpt lat="43.56967" lon="6.31577">
        <ele>462.7</ele>
        <time>2019-10-30T14:13:09Z</time>
      </trkpt>
      <trkpt lat="43.56977" lon="6.3158">
        <ele>463.9</ele>
        <time>2019-10-30T14:13:20Z</time>
      </trkpt>
      <trkpt lat="43.56986" lon="6.31581">
        <ele>465.1</ele>
        <time>2019-10-30T14:13:31Z</time>
      </trkpt>
      <trkpt lat="43.56996" lon="6.31581">
        <ele>466.3</ele>
        <time>2019-10-30T14:13:42Z</time>
      </trkpt>
      <trkpt lat="43.57005" lon="6.31583">
        <ele>467</ele>
        <time>2019-10-30T14:13:53Z</time>
      </trkpt>
      <trkpt lat="43.57014" lon="6.31584">
        <ele>468.2</ele>
        <time>2019-10-30T14:14:04Z</time>
      </trkpt>
      <trkpt lat="43.57024" lon="6.31583">
        <ele>468.9</ele>
        <time>2019-10-30T14:14:15Z</time>
      </trkpt>
      <trkpt lat="43.57033" lon="6.31582">
        <ele>469.5</ele>
        <time>2019-10-30T14:14:24Z</time>
      </trkpt>
      <trkpt lat="43.57043" lon="6.3158">
        <ele>469.5</ele>
        <time>2019-10-30T14:14:34Z</time>
      </trkpt>
      <trkpt lat="43.57053" lon="6.31578">
        <ele>470.6</ele>
        <time>2019-10-30T14:14:44Z</time>
      </trkpt>
      <trkpt lat="43.57062" lon="6.31575">
        <ele>471.2</ele>
        <time>2019-10-30T14:14:54Z</time>
      </trkpt>
      <trkpt lat="43.57072" lon="6.31573">
        <ele>472</ele>
        <time>2019-10-30T14:15:09Z</time>
      </trkpt>
      <trkpt lat="43.57081" lon="6.31572">
        <ele>472.3</ele>
        <time>2019-10-30T14:15:20Z</time>
      </trkpt>
      <trkpt lat="43.57091" lon="6.31572">
        <ele>472.8</ele>
        <time>2019-10-30T14:15:31Z</time>
      </trkpt>
      <trkpt lat="43.571" lon="6.31569">
        <ele>474</ele>
        <time>2019-10-30T14:15:53Z</time>
      </trkpt>
      <trkpt lat="43.57109" lon="6.31571">
        <ele>474.4</ele>
        <time>2019-10-30T14:17:42Z</time>
      </trkpt>
      <trkpt lat="43.57118" lon="6.31576">
        <ele>474.1</ele>
        <time>2019-10-30T14:17:52Z</time>
      </trkpt>
      <trkpt lat="43.57127" lon="6.31581">
        <ele>474.2</ele>
        <time>2019-10-30T14:18:04Z</time>
      </trkpt>
      <trkpt lat="43.57136" lon="6.3158">
        <ele>474</ele>
        <time>2019-10-30T14:18:14Z</time>
      </trkpt>
      <trkpt lat="43.57145" lon="6.31581">
        <ele>474.5</ele>
        <time>2019-10-30T14:18:25Z</time>
      </trkpt>
      <trkpt lat="43.57154" lon="6.3158">
        <ele>474.8</ele>
        <time>2019-10-30T14:18:34Z</time>
      </trkpt>
      <trkpt lat="43.57164" lon="6.31583">
        <ele>474.8</ele>
        <time>2019-10-30T14:18:43Z</time>
      </trkpt>
      <trkpt lat="43.57173" lon="6.31585">
        <ele>474.7</ele>
        <time>2019-10-30T14:18:53Z</time>
      </trkpt>
      <trkpt lat="43.57182" lon="6.31589">
        <ele>474.5</ele>
        <time>2019-10-30T14:19:09Z</time>
      </trkpt>
      <trkpt lat="43.57191" lon="6.31592">
        <ele>475.2</ele>
        <time>2019-10-30T14:19:21Z</time>
      </trkpt>
      <trkpt lat="43.572" lon="6.31596">
        <ele>475.8</ele>
        <time>2019-10-30T14:19:31Z</time>
      </trkpt>
      <trkpt lat="43.57208" lon="6.31602">
        <ele>476.4</ele>
        <time>2019-10-30T14:19:41Z</time>
      </trkpt>
      <trkpt lat="43.57215" lon="6.3161">
        <ele>476.7</ele>
        <time>2019-10-30T14:19:51Z</time>
      </trkpt>
      <trkpt lat="43.57221" lon="6.3162">
        <ele>477.1</ele>
        <time>2019-10-30T14:20:01Z</time>
      </trkpt>
      <trkpt lat="43.57228" lon="6.3163">
        <ele>477.4</ele>
        <time>2019-10-30T14:20:11Z</time>
      </trkpt>
      <trkpt lat="43.57234" lon="6.3164">
        <ele>478</ele>
        <time>2019-10-30T14:20:20Z</time>
      </trkpt>
      <trkpt lat="43.57241" lon="6.31651">
        <ele>478.4</ele>
        <time>2019-10-30T14:20:29Z</time>
      </trkpt>
      <trkpt lat="43.57249" lon="6.31658">
        <ele>478.4</ele>
        <time>2019-10-30T14:20:40Z</time>
      </trkpt>
      <trkpt lat="43.57255" lon="6.31668">
        <ele>478.5</ele>
        <time>2019-10-30T14:20:49Z</time>
      </trkpt>
      <trkpt lat="43.57261" lon="6.31677">
        <ele>478.7</ele>
        <time>2019-10-30T14:21:00Z</time>
      </trkpt>
      <trkpt lat="43.57268" lon="6.31685">
        <ele>479</ele>
        <time>2019-10-30T14:21:09Z</time>
      </trkpt>
      <trkpt lat="43.57275" lon="6.31694">
        <ele>479</ele>
        <time>2019-10-30T14:21:19Z</time>
      </trkpt>
      <trkpt lat="43.57283" lon="6.31702">
        <ele>479.1</ele>
        <time>2019-10-30T14:21:29Z</time>
      </trkpt>
      <trkpt lat="43.57291" lon="6.31709">
        <ele>479.3</ele>
        <time>2019-10-30T14:21:41Z</time>
      </trkpt>
      <trkpt lat="43.573" lon="6.31712">
        <ele>479.3</ele>
        <time>2019-10-30T14:21:50Z</time>
      </trkpt>
      <trkpt lat="43.57309" lon="6.31715">
        <ele>479.4</ele>
        <time>2019-10-30T14:22:00Z</time>
      </trkpt>
      <trkpt lat="43.57319" lon="6.31716">
        <ele>479.5</ele>
        <time>2019-10-30T14:22:10Z</time>
      </trkpt>
      <trkpt lat="43.57328" lon="6.31714">
        <ele>479</ele>
        <time>2019-10-30T14:22:20Z</time>
      </trkpt>
      <trkpt lat="43.57334" lon="6.31724">
        <ele>479.5</ele>
        <time>2019-10-30T14:23:32Z</time>
      </trkpt>
      <trkpt lat="43.57336" lon="6.31736">
        <ele>480.7</ele>
        <time>2019-10-30T14:23:47Z</time>
      </trkpt>
      <trkpt lat="43.5734" lon="6.31748">
        <ele>481.7</ele>
        <time>2019-10-30T14:24:07Z</time>
      </trkpt>
      <trkpt lat="43.57342" lon="6.3176">
        <ele>482.6</ele>
        <time>2019-10-30T14:24:48Z</time>
      </trkpt>
      <trkpt lat="43.57347" lon="6.31771">
        <ele>483.4</ele>
        <time>2019-10-30T14:25:08Z</time>
      </trkpt>
      <trkpt lat="43.57344" lon="6.31782">
        <ele>484.4</ele>
        <time>2019-10-30T14:25:23Z</time>
      </trkpt>
      <trkpt lat="43.57347" lon="6.31794">
        <ele>485.5</ele>
        <time>2019-10-30T14:25:38Z</time>
      </trkpt>
      <trkpt lat="43.57355" lon="6.31799">
        <ele>486.3</ele>
        <time>2019-10-30T14:25:50Z</time>
      </trkpt>
      <trkpt lat="43.57364" lon="6.31803">
        <ele>486.9</ele>
        <time>2019-10-30T14:26:01Z</time>
      </trkpt>
      <trkpt lat="43.57373" lon="6.31798">
        <ele>487.9</ele>
        <time>2019-10-30T14:26:20Z</time>
      </trkpt>
      <trkpt lat="43.57382" lon="6.31791">
        <ele>488.3</ele>
        <time>2019-10-30T14:26:30Z</time>
      </trkpt>
      <trkpt lat="43.57389" lon="6.31783">
        <ele>488.7</ele>
        <time>2019-10-30T14:26:39Z</time>
      </trkpt>
      <trkpt lat="43.57396" lon="6.31774">
        <ele>489.3</ele>
        <time>2019-10-30T14:26:47Z</time>
      </trkpt>
      <trkpt lat="43.57403" lon="6.31764">
        <ele>489.8</ele>
        <time>2019-10-30T14:26:55Z</time>
      </trkpt>
      <trkpt lat="43.57409" lon="6.31755">
        <ele>489.6</ele>
        <time>2019-10-30T14:27:02Z</time>
      </trkpt>
      <trkpt lat="43.57417" lon="6.31747">
        <ele>490.1</ele>
        <time>2019-10-30T14:27:11Z</time>
      </trkpt>
      <trkpt lat="43.57423" lon="6.31738">
        <ele>490</ele>
        <time>2019-10-30T14:27:19Z</time>
      </trkpt>
      <trkpt lat="43.57431" lon="6.3173">
        <ele>490.5</ele>
        <time>2019-10-30T14:27:30Z</time>
      </trkpt>
      <trkpt lat="43.57439" lon="6.31722">
        <ele>491</ele>
        <time>2019-10-30T14:27:39Z</time>
      </trkpt>
      <trkpt lat="43.57447" lon="6.31714">
        <ele>491.2</ele>
        <time>2019-10-30T14:27:49Z</time>
      </trkpt>
      <trkpt lat="43.57455" lon="6.31706">
        <ele>491.1</ele>
        <time>2019-10-30T14:27:59Z</time>
      </trkpt>
      <trkpt lat="43.57463" lon="6.317">
        <ele>491.4</ele>
        <time>2019-10-30T14:28:08Z</time>
      </trkpt>
      <trkpt lat="43.57471" lon="6.31692">
        <ele>491</ele>
        <time>2019-10-30T14:28:22Z</time>
      </trkpt>
      <trkpt lat="43.57478" lon="6.31683">
        <ele>491</ele>
        <time>2019-10-30T14:28:31Z</time>
      </trkpt>
      <trkpt lat="43.57484" lon="6.31674">
        <ele>490.8</ele>
        <time>2019-10-30T14:28:38Z</time>
      </trkpt>
      <trkpt lat="43.5749" lon="6.31663">
        <ele>490.6</ele>
        <time>2019-10-30T14:28:53Z</time>
      </trkpt>
      <trkpt lat="43.57496" lon="6.31654">
        <ele>490.8</ele>
        <time>2019-10-30T14:29:03Z</time>
      </trkpt>
      <trkpt lat="43.57503" lon="6.31645">
        <ele>491.3</ele>
        <time>2019-10-30T14:29:12Z</time>
      </trkpt>
      <trkpt lat="43.57512" lon="6.31637">
        <ele>491.4</ele>
        <time>2019-10-30T14:29:21Z</time>
      </trkpt>
      <trkpt lat="43.5752" lon="6.31632">
        <ele>491.6</ele>
        <time>2019-10-30T14:29:32Z</time>
      </trkpt>
      <trkpt lat="43.57529" lon="6.31626">
        <ele>492.1</ele>
        <time>2019-10-30T14:29:41Z</time>
      </trkpt>
      <trkpt lat="43.57537" lon="6.3162">
        <ele>492.3</ele>
        <time>2019-10-30T14:29:50Z</time>
      </trkpt>
      <trkpt lat="43.57545" lon="6.31613">
        <ele>492.1</ele>
        <time>2019-10-30T14:30:01Z</time>
      </trkpt>
      <trkpt lat="43.57552" lon="6.31605">
        <ele>492.2</ele>
        <time>2019-10-30T14:30:12Z</time>
      </trkpt>
      <trkpt lat="43.57556" lon="6.31594">
        <ele>492.7</ele>
        <time>2019-10-30T14:30:24Z</time>
      </trkpt>
      <trkpt lat="43.57552" lon="6.31582">
        <ele>492.5</ele>
        <time>2019-10-30T14:31:05Z</time>
      </trkpt>
      <trkpt lat="43.57551" lon="6.31568">
        <ele>492.2</ele>
        <time>2019-10-30T14:31:15Z</time>
      </trkpt>
      <trkpt lat="43.57551" lon="6.31554">
        <ele>491.4</ele>
        <time>2019-10-30T14:31:26Z</time>
      </trkpt>
      <trkpt lat="43.57551" lon="6.3154">
        <ele>491.3</ele>
        <time>2019-10-30T14:31:35Z</time>
      </trkpt>
      <trkpt lat="43.57549" lon="6.31528">
        <ele>491</ele>
        <time>2019-10-30T14:31:45Z</time>
      </trkpt>
      <trkpt lat="43.57547" lon="6.31515">
        <ele>490.6</ele>
        <time>2019-10-30T14:31:55Z</time>
      </trkpt>
      <trkpt lat="43.57543" lon="6.31503">
        <ele>490.4</ele>
        <time>2019-10-30T14:32:06Z</time>
      </trkpt>
      <trkpt lat="43.57538" lon="6.31493">
        <ele>490.4</ele>
        <time>2019-10-30T14:32:15Z</time>
      </trkpt>
      <trkpt lat="43.5753" lon="6.31485">
        <ele>489.3</ele>
        <time>2019-10-30T14:32:23Z</time>
      </trkpt>
      <trkpt lat="43.5752" lon="6.31481">
        <ele>489.1</ele>
        <time>2019-10-30T14:32:31Z</time>
      </trkpt>
      <trkpt lat="43.57511" lon="6.31476">
        <ele>488.5</ele>
        <time>2019-10-30T14:32:39Z</time>
      </trkpt>
      <trkpt lat="43.57503" lon="6.3147">
        <ele>487.5</ele>
        <time>2019-10-30T14:32:48Z</time>
      </trkpt>
      <trkpt lat="43.57495" lon="6.31462">
        <ele>487</ele>
        <time>2019-10-30T14:33:00Z</time>
      </trkpt>
      <trkpt lat="43.57493" lon="6.31449">
        <ele>486.8</ele>
        <time>2019-10-30T14:33:12Z</time>
      </trkpt>
      <trkpt lat="43.57489" lon="6.31438">
        <ele>487</ele>
        <time>2019-10-30T14:33:24Z</time>
      </trkpt>
      <trkpt lat="43.57493" lon="6.31426">
        <ele>486.2</ele>
        <time>2019-10-30T14:33:37Z</time>
      </trkpt>
      <trkpt lat="43.575" lon="6.31416">
        <ele>485.9</ele>
        <time>2019-10-30T14:33:47Z</time>
      </trkpt>
      <trkpt lat="43.57507" lon="6.31407">
        <ele>485.8</ele>
        <time>2019-10-30T14:33:56Z</time>
      </trkpt>
      <trkpt lat="43.57514" lon="6.31399">
        <ele>486.4</ele>
        <time>2019-10-30T14:34:05Z</time>
      </trkpt>
      <trkpt lat="43.57522" lon="6.31391">
        <ele>486.8</ele>
        <time>2019-10-30T14:34:14Z</time>
      </trkpt>
      <trkpt lat="43.5753" lon="6.31383">
        <ele>487.3</ele>
        <time>2019-10-30T14:34:23Z</time>
      </trkpt>
      <trkpt lat="43.57538" lon="6.31377">
        <ele>488</ele>
        <time>2019-10-30T14:34:33Z</time>
      </trkpt>
      <trkpt lat="43.57547" lon="6.31371">
        <ele>488.9</ele>
        <time>2019-10-30T14:34:44Z</time>
      </trkpt>
      <trkpt lat="43.57556" lon="6.31365">
        <ele>490.2</ele>
        <time>2019-10-30T14:34:57Z</time>
      </trkpt>
      <trkpt lat="43.57552" lon="6.31354">
        <ele>491.7</ele>
        <time>2019-10-30T14:35:11Z</time>
      </trkpt>
      <trkpt lat="43.57543" lon="6.31348">
        <ele>493.2</ele>
        <time>2019-10-30T14:35:22Z</time>
      </trkpt>
      <trkpt lat="43.57535" lon="6.31341">
        <ele>493.2</ele>
        <time>2019-10-30T14:35:33Z</time>
      </trkpt>
      <trkpt lat="43.57528" lon="6.31333">
        <ele>493.2</ele>
        <time>2019-10-30T14:35:44Z</time>
      </trkpt>
      <trkpt lat="43.57522" lon="6.31323">
        <ele>492.8</ele>
        <time>2019-10-30T14:35:54Z</time>
      </trkpt>
      <trkpt lat="43.57515" lon="6.31316">
        <ele>491.9</ele>
        <time>2019-10-30T14:36:05Z</time>
      </trkpt>
      <trkpt lat="43.5751" lon="6.31305">
        <ele>490.8</ele>
        <time>2019-10-30T14:36:15Z</time>
      </trkpt>
      <trkpt lat="43.57504" lon="6.31295">
        <ele>489.5</ele>
        <time>2019-10-30T14:36:42Z</time>
      </trkpt>
      <trkpt lat="43.57496" lon="6.31289">
        <ele>489.3</ele>
        <time>2019-10-30T14:37:02Z</time>
      </trkpt>
      <trkpt lat="43.57488" lon="6.31283">
        <ele>489.2</ele>
        <time>2019-10-30T14:37:24Z</time>
      </trkpt>
      <trkpt lat="43.5748" lon="6.31276">
        <ele>488.8</ele>
        <time>2019-10-30T14:37:38Z</time>
      </trkpt>
      <trkpt lat="43.57475" lon="6.31266">
        <ele>487.8</ele>
        <time>2019-10-30T14:37:57Z</time>
      </trkpt>
      <trkpt lat="43.57467" lon="6.31261">
        <ele>486.5</ele>
        <time>2019-10-30T14:38:09Z</time>
      </trkpt>
      <trkpt lat="43.57461" lon="6.31252">
        <ele>484.8</ele>
        <time>2019-10-30T14:38:33Z</time>
      </trkpt>
      <trkpt lat="43.57455" lon="6.31241">
        <ele>482.3</ele>
        <time>2019-10-30T14:39:07Z</time>
      </trkpt>
      <trkpt lat="43.57447" lon="6.31236">
        <ele>481.9</ele>
        <time>2019-10-30T14:39:19Z</time>
      </trkpt>
      <trkpt lat="43.57439" lon="6.31229">
        <ele>480.9</ele>
        <time>2019-10-30T14:39:29Z</time>
      </trkpt>
      <trkpt lat="43.5743" lon="6.31223">
        <ele>479.9</ele>
        <time>2019-10-30T14:39:39Z</time>
      </trkpt>
      <trkpt lat="43.57421" lon="6.31219">
        <ele>479.4</ele>
        <time>2019-10-30T14:39:50Z</time>
      </trkpt>
      <trkpt lat="43.57413" lon="6.31211">
        <ele>478.6</ele>
        <time>2019-10-30T14:40:03Z</time>
      </trkpt>
      <trkpt lat="43.57411" lon="6.31199">
        <ele>478.2</ele>
        <time>2019-10-30T14:40:20Z</time>
      </trkpt>
      <trkpt lat="43.57413" lon="6.31186">
        <ele>478.1</ele>
        <time>2019-10-30T14:40:33Z</time>
      </trkpt>
      <trkpt lat="43.57418" lon="6.31176">
        <ele>477.8</ele>
        <time>2019-10-30T14:40:41Z</time>
      </trkpt>
      <trkpt lat="43.57424" lon="6.31165">
        <ele>477.7</ele>
        <time>2019-10-30T14:40:49Z</time>
      </trkpt>
      <trkpt lat="43.57427" lon="6.31153">
        <ele>477.5</ele>
        <time>2019-10-30T14:41:12Z</time>
      </trkpt>
      <trkpt lat="43.5743" lon="6.31141">
        <ele>477.4</ele>
        <time>2019-10-30T14:41:23Z</time>
      </trkpt>
      <trkpt lat="43.57434" lon="6.31129">
        <ele>477.1</ele>
        <time>2019-10-30T14:41:32Z</time>
      </trkpt>
      <trkpt lat="43.57437" lon="6.31117">
        <ele>477.1</ele>
        <time>2019-10-30T14:41:40Z</time>
      </trkpt>
      <trkpt lat="43.57439" lon="6.31105">
        <ele>476.8</ele>
        <time>2019-10-30T14:41:55Z</time>
      </trkpt>
      <trkpt lat="43.57447" lon="6.31097">
        <ele>475.9</ele>
        <time>2019-10-30T14:42:06Z</time>
      </trkpt>
      <trkpt lat="43.57454" lon="6.31089">
        <ele>475.1</ele>
        <time>2019-10-30T14:42:12Z</time>
      </trkpt>
      <trkpt lat="43.57462" lon="6.3108">
        <ele>474.2</ele>
        <time>2019-10-30T14:42:20Z</time>
      </trkpt>
      <trkpt lat="43.5747" lon="6.31074">
        <ele>473.1</ele>
        <time>2019-10-30T14:42:28Z</time>
      </trkpt>
      <trkpt lat="43.57479" lon="6.31068">
        <ele>472.9</ele>
        <time>2019-10-30T14:42:38Z</time>
      </trkpt>
      <trkpt lat="43.57486" lon="6.31058">
        <ele>471.9</ele>
        <time>2019-10-30T14:42:49Z</time>
      </trkpt>
      <trkpt lat="43.57492" lon="6.31046">
        <ele>471.4</ele>
        <time>2019-10-30T14:42:57Z</time>
      </trkpt>
      <trkpt lat="43.5749" lon="6.31033">
        <ele>470.1</ele>
        <time>2019-10-30T14:43:07Z</time>
      </trkpt>
      <trkpt lat="43.57485" lon="6.31022">
        <ele>469.1</ele>
        <time>2019-10-30T14:43:19Z</time>
      </trkpt>
      <trkpt lat="43.57482" lon="6.3101">
        <ele>467.8</ele>
        <time>2019-10-30T14:43:32Z</time>
      </trkpt>
      <trkpt lat="43.57486" lon="6.30998">
        <ele>466.7</ele>
        <time>2019-10-30T14:43:40Z</time>
      </trkpt>
      <trkpt lat="43.57491" lon="6.30987">
        <ele>466.4</ele>
        <time>2019-10-30T14:43:48Z</time>
      </trkpt>
      <trkpt lat="43.57494" lon="6.30975">
        <ele>465.5</ele>
        <time>2019-10-30T14:43:58Z</time>
      </trkpt>
      <trkpt lat="43.57497" lon="6.30963">
        <ele>464.6</ele>
        <time>2019-10-30T14:44:09Z</time>
      </trkpt>
      <trkpt lat="43.575" lon="6.30951">
        <ele>464</ele>
        <time>2019-10-30T14:44:18Z</time>
      </trkpt>
      <trkpt lat="43.57506" lon="6.30942">
        <ele>463.5</ele>
        <time>2019-10-30T14:44:24Z</time>
      </trkpt>
      <trkpt lat="43.57511" lon="6.3093">
        <ele>463</ele>
        <time>2019-10-30T14:44:32Z</time>
      </trkpt>
      <trkpt lat="43.5751" lon="6.30918">
        <ele>461.9</ele>
        <time>2019-10-30T14:44:42Z</time>
      </trkpt>
      <trkpt lat="43.5751" lon="6.30905">
        <ele>461</ele>
        <time>2019-10-30T14:44:50Z</time>
      </trkpt>
      <trkpt lat="43.57511" lon="6.30892">
        <ele>460.4</ele>
        <time>2019-10-30T14:44:59Z</time>
      </trkpt>
      <trkpt lat="43.57512" lon="6.30879">
        <ele>459.8</ele>
        <time>2019-10-30T14:45:09Z</time>
      </trkpt>
      <trkpt lat="43.57509" lon="6.30866">
        <ele>459.1</ele>
        <time>2019-10-30T14:45:20Z</time>
      </trkpt>
      <trkpt lat="43.57501" lon="6.30859">
        <ele>458.7</ele>
        <time>2019-10-30T14:45:28Z</time>
      </trkpt>
      <trkpt lat="43.57493" lon="6.30852">
        <ele>458.5</ele>
        <time>2019-10-30T14:45:36Z</time>
      </trkpt>
      <trkpt lat="43.57485" lon="6.30845">
        <ele>458.4</ele>
        <time>2019-10-30T14:45:44Z</time>
      </trkpt>
      <trkpt lat="43.57476" lon="6.3084">
        <ele>458.4</ele>
        <time>2019-10-30T14:45:52Z</time>
      </trkpt>
      <trkpt lat="43.57468" lon="6.30834">
        <ele>458.1</ele>
        <time>2019-10-30T14:46:01Z</time>
      </trkpt>
      <trkpt lat="43.57461" lon="6.30824">
        <ele>457.7</ele>
        <time>2019-10-30T14:46:12Z</time>
      </trkpt>
      <trkpt lat="43.57454" lon="6.30817">
        <ele>457.2</ele>
        <time>2019-10-30T14:46:19Z</time>
      </trkpt>
      <trkpt lat="43.57445" lon="6.30811">
        <ele>457.6</ele>
        <time>2019-10-30T14:46:26Z</time>
      </trkpt>
      <trkpt lat="43.5744" lon="6.30801">
        <ele>458</ele>
        <time>2019-10-30T14:46:35Z</time>
      </trkpt>
      <trkpt lat="43.57433" lon="6.30791">
        <ele>458.3</ele>
        <time>2019-10-30T14:46:45Z</time>
      </trkpt>
      <trkpt lat="43.57428" lon="6.30781">
        <ele>458.7</ele>
        <time>2019-10-30T14:46:53Z</time>
      </trkpt>
      <trkpt lat="43.57423" lon="6.3077">
        <ele>458.8</ele>
        <time>2019-10-30T14:47:02Z</time>
      </trkpt>
      <trkpt lat="43.57418" lon="6.30758">
        <ele>459.3</ele>
        <time>2019-10-30T14:47:11Z</time>
      </trkpt>
      <trkpt lat="43.57414" lon="6.30745">
        <ele>459.8</ele>
        <time>2019-10-30T14:47:21Z</time>
      </trkpt>
      <trkpt lat="43.57414" lon="6.30733">
        <ele>460</ele>
        <time>2019-10-30T14:47:29Z</time>
      </trkpt>
      <trkpt lat="43.57408" lon="6.30722">
        <ele>460</ele>
        <time>2019-10-30T14:47:36Z</time>
      </trkpt>
      <trkpt lat="43.57401" lon="6.30713">
        <ele>460.2</ele>
        <time>2019-10-30T14:47:42Z</time>
      </trkpt>
      <trkpt lat="43.57395" lon="6.30704">
        <ele>460.3</ele>
        <time>2019-10-30T14:47:49Z</time>
      </trkpt>
      <trkpt lat="43.57388" lon="6.30694">
        <ele>460.3</ele>
        <time>2019-10-30T14:47:57Z</time>
      </trkpt>
      <trkpt lat="43.57382" lon="6.30684">
        <ele>460.1</ele>
        <time>2019-10-30T14:48:04Z</time>
      </trkpt>
      <trkpt lat="43.57377" lon="6.30672">
        <ele>460.1</ele>
        <time>2019-10-30T14:48:12Z</time>
      </trkpt>
      <trkpt lat="43.57373" lon="6.30661">
        <ele>460.4</ele>
        <time>2019-10-30T14:48:21Z</time>
      </trkpt>
      <trkpt lat="43.57367" lon="6.3065">
        <ele>460.6</ele>
        <time>2019-10-30T14:48:29Z</time>
      </trkpt>
      <trkpt lat="43.57361" lon="6.3064">
        <ele>459.7</ele>
        <time>2019-10-30T14:50:04Z</time>
      </trkpt>
      <trkpt lat="43.57354" lon="6.30632">
        <ele>459.4</ele>
        <time>2019-10-30T14:50:14Z</time>
      </trkpt>
      <trkpt lat="43.57345" lon="6.30629">
        <ele>459.1</ele>
        <time>2019-10-30T14:50:23Z</time>
      </trkpt>
      <trkpt lat="43.57335" lon="6.30628">
        <ele>458.6</ele>
        <time>2019-10-30T14:50:34Z</time>
      </trkpt>
      <trkpt lat="43.57326" lon="6.30631">
        <ele>457.9</ele>
        <time>2019-10-30T14:50:43Z</time>
      </trkpt>
      <trkpt lat="43.57316" lon="6.30636">
        <ele>457.5</ele>
        <time>2019-10-30T14:50:52Z</time>
      </trkpt>
      <trkpt lat="43.57307" lon="6.30641">
        <ele>457.3</ele>
        <time>2019-10-30T14:51:01Z</time>
      </trkpt>
      <trkpt lat="43.57299" lon="6.30646">
        <ele>456.6</ele>
        <time>2019-10-30T14:51:10Z</time>
      </trkpt>
      <trkpt lat="43.5729" lon="6.3065">
        <ele>456.1</ele>
        <time>2019-10-30T14:51:19Z</time>
      </trkpt>
      <trkpt lat="43.5728" lon="6.30651">
        <ele>455.9</ele>
        <time>2019-10-30T14:51:30Z</time>
      </trkpt>
      <trkpt lat="43.57272" lon="6.30658">
        <ele>455.5</ele>
        <time>2019-10-30T14:51:41Z</time>
      </trkpt>
      <trkpt lat="43.57263" lon="6.30663">
        <ele>455</ele>
        <time>2019-10-30T14:51:52Z</time>
      </trkpt>
      <trkpt lat="43.57254" lon="6.30661">
        <ele>455</ele>
        <time>2019-10-30T14:52:03Z</time>
      </trkpt>
      <trkpt lat="43.57245" lon="6.30656">
        <ele>454.6</ele>
        <time>2019-10-30T14:52:13Z</time>
      </trkpt>
      <trkpt lat="43.57236" lon="6.30649">
        <ele>453.9</ele>
        <time>2019-10-30T14:52:23Z</time>
      </trkpt>
      <trkpt lat="43.57229" lon="6.30642">
        <ele>454.1</ele>
        <time>2019-10-30T14:52:32Z</time>
      </trkpt>
      <trkpt lat="43.57221" lon="6.30636">
        <ele>453.9</ele>
        <time>2019-10-30T14:52:41Z</time>
      </trkpt>
      <trkpt lat="43.57212" lon="6.3063">
        <ele>453.8</ele>
        <time>2019-10-30T14:52:50Z</time>
      </trkpt>
      <trkpt lat="43.57203" lon="6.30626">
        <ele>453.7</ele>
        <time>2019-10-30T14:52:59Z</time>
      </trkpt>
      <trkpt lat="43.57195" lon="6.30618">
        <ele>453.4</ele>
        <time>2019-10-30T14:53:08Z</time>
      </trkpt>
      <trkpt lat="43.57188" lon="6.30611">
        <ele>453.1</ele>
        <time>2019-10-30T14:53:18Z</time>
      </trkpt>
      <trkpt lat="43.5718" lon="6.30602">
        <ele>452.8</ele>
        <time>2019-10-30T14:53:29Z</time>
      </trkpt>
      <trkpt lat="43.57172" lon="6.30596">
        <ele>452.9</ele>
        <time>2019-10-30T14:53:37Z</time>
      </trkpt>
      <trkpt lat="43.57164" lon="6.30589">
        <ele>452.9</ele>
        <time>2019-10-30T14:53:48Z</time>
      </trkpt>
      <trkpt lat="43.57156" lon="6.30582">
        <ele>452.7</ele>
        <time>2019-10-30T14:53:58Z</time>
      </trkpt>
      <trkpt lat="43.57147" lon="6.30575">
        <ele>452.6</ele>
        <time>2019-10-30T14:54:07Z</time>
      </trkpt>
      <trkpt lat="43.57139" lon="6.3057">
        <ele>452.5</ele>
        <time>2019-10-30T14:54:13Z</time>
      </trkpt>
      <trkpt lat="43.57132" lon="6.3056">
        <ele>452.5</ele>
        <time>2019-10-30T14:54:22Z</time>
      </trkpt>
      <trkpt lat="43.57126" lon="6.30551">
        <ele>452.6</ele>
        <time>2019-10-30T14:54:34Z</time>
      </trkpt>
      <trkpt lat="43.57122" lon="6.3054">
        <ele>452.7</ele>
        <time>2019-10-30T14:54:46Z</time>
      </trkpt>
      <trkpt lat="43.57116" lon="6.30529">
        <ele>452.4</ele>
        <time>2019-10-30T14:54:58Z</time>
      </trkpt>
      <trkpt lat="43.57114" lon="6.30516">
        <ele>452.2</ele>
        <time>2019-10-30T14:55:17Z</time>
      </trkpt>
      <trkpt lat="43.57119" lon="6.30505">
        <ele>452.1</ele>
        <time>2019-10-30T14:55:25Z</time>
      </trkpt>
      <trkpt lat="43.57123" lon="6.30494">
        <ele>452.4</ele>
        <time>2019-10-30T14:55:35Z</time>
      </trkpt>
      <trkpt lat="43.57125" lon="6.30481">
        <ele>452.1</ele>
        <time>2019-10-30T14:55:43Z</time>
      </trkpt>
      <trkpt lat="43.57129" lon="6.30468">
        <ele>452.2</ele>
        <time>2019-10-30T14:55:50Z</time>
      </trkpt>
      <trkpt lat="43.57133" lon="6.30457">
        <ele>452.1</ele>
        <time>2019-10-30T14:55:58Z</time>
      </trkpt>
      <trkpt lat="43.57141" lon="6.30451">
        <ele>451.8</ele>
        <time>2019-10-30T14:56:16Z</time>
      </trkpt>
      <trkpt lat="43.57149" lon="6.30459">
        <ele>451</ele>
        <time>2019-10-30T14:56:34Z</time>
      </trkpt>
      <trkpt lat="43.57157" lon="6.30466">
        <ele>449.9</ele>
        <time>2019-10-30T14:56:47Z</time>
      </trkpt>
      <trkpt lat="43.57163" lon="6.30476">
        <ele>448.7</ele>
        <time>2019-10-30T14:57:01Z</time>
      </trkpt>
      <trkpt lat="43.5717" lon="6.30482">
        <ele>447.8</ele>
        <time>2019-10-30T14:57:10Z</time>
      </trkpt>
      <trkpt lat="43.57175" lon="6.30494">
        <ele>446.9</ele>
        <time>2019-10-30T14:57:24Z</time>
      </trkpt>
      <trkpt lat="43.57182" lon="6.30503">
        <ele>446.2</ele>
        <time>2019-10-30T14:57:36Z</time>
      </trkpt>
      <trkpt lat="43.57188" lon="6.30513">
        <ele>445</ele>
        <time>2019-10-30T14:57:46Z</time>
      </trkpt>
      <trkpt lat="43.57194" lon="6.30523">
        <ele>444</ele>
        <time>2019-10-30T14:57:59Z</time>
      </trkpt>
      <trkpt lat="43.57201" lon="6.30532">
        <ele>442.3</ele>
        <time>2019-10-30T14:58:13Z</time>
      </trkpt>
      <trkpt lat="43.57209" lon="6.30539">
        <ele>441.5</ele>
        <time>2019-10-30T14:58:26Z</time>
      </trkpt>
      <trkpt lat="43.57217" lon="6.30548">
        <ele>440.2</ele>
        <time>2019-10-30T14:58:38Z</time>
      </trkpt>
      <trkpt lat="43.57226" lon="6.30547">
        <ele>438.5</ele>
        <time>2019-10-30T14:58:52Z</time>
      </trkpt>
      <trkpt lat="43.57235" lon="6.3055">
        <ele>438.1</ele>
        <time>2019-10-30T14:59:04Z</time>
      </trkpt>
      <trkpt lat="43.57242" lon="6.30558">
        <ele>437.6</ele>
        <time>2019-10-30T14:59:14Z</time>
      </trkpt>
      <trkpt lat="43.57249" lon="6.30566">
        <ele>437.2</ele>
        <time>2019-10-30T14:59:22Z</time>
      </trkpt>
      <trkpt lat="43.57257" lon="6.30573">
        <ele>436.3</ele>
        <time>2019-10-30T14:59:35Z</time>
      </trkpt>
      <trkpt lat="43.57266" lon="6.30575">
        <ele>435.6</ele>
        <time>2019-10-30T14:59:49Z</time>
      </trkpt>
      <trkpt lat="43.57274" lon="6.30567">
        <ele>434.8</ele>
        <time>2019-10-30T15:00:06Z</time>
      </trkpt>
      <trkpt lat="43.57279" lon="6.30556">
        <ele>434.5</ele>
        <time>2019-10-30T15:00:18Z</time>
      </trkpt>
      <trkpt lat="43.57281" lon="6.30543">
        <ele>432.6</ele>
        <time>2019-10-30T15:00:31Z</time>
      </trkpt>
      <trkpt lat="43.57287" lon="6.30533">
        <ele>431.9</ele>
        <time>2019-10-30T15:00:37Z</time>
      </trkpt>
      <trkpt lat="43.5729" lon="6.30521">
        <ele>430.7</ele>
        <time>2019-10-30T15:00:47Z</time>
      </trkpt>
      <trkpt lat="43.57285" lon="6.30511">
        <ele>428.1</ele>
        <time>2019-10-30T15:01:06Z</time>
      </trkpt>
      <trkpt lat="43.57276" lon="6.30507">
        <ele>425.3</ele>
        <time>2019-10-30T15:01:24Z</time>
      </trkpt>
      <trkpt lat="43.57267" lon="6.30507">
        <ele>422.8</ele>
        <time>2019-10-30T15:01:45Z</time>
      </trkpt>
      <trkpt lat="43.57258" lon="6.30505">
        <ele>421.7</ele>
        <time>2019-10-30T15:02:01Z</time>
      </trkpt>
      <trkpt lat="43.5725" lon="6.305">
        <ele>420.2</ele>
        <time>2019-10-30T15:02:48Z</time>
      </trkpt>
      <trkpt lat="43.57245" lon="6.30489">
        <ele>420.6</ele>
        <time>2019-10-30T15:03:11Z</time>
      </trkpt>
      <trkpt lat="43.5724" lon="6.30477">
        <ele>419.2</ele>
        <time>2019-10-30T15:03:27Z</time>
      </trkpt>
      <trkpt lat="43.57238" lon="6.30464">
        <ele>417</ele>
        <time>2019-10-30T15:03:43Z</time>
      </trkpt>
      <trkpt lat="43.57236" lon="6.30451">
        <ele>416.1</ele>
        <time>2019-10-30T15:03:55Z</time>
      </trkpt>
      <trkpt lat="43.57232" lon="6.30439">
        <ele>415.6</ele>
        <time>2019-10-30T15:04:06Z</time>
      </trkpt>
      <trkpt lat="43.57232" lon="6.30426">
        <ele>414</ele>
        <time>2019-10-30T15:04:19Z</time>
      </trkpt>
      <trkpt lat="43.57233" lon="6.30414">
        <ele>413.2</ele>
        <time>2019-10-30T15:04:29Z</time>
      </trkpt>
      <trkpt lat="43.57228" lon="6.30403">
        <ele>411.8</ele>
        <time>2019-10-30T15:04:57Z</time>
      </trkpt>
      <trkpt lat="43.57228" lon="6.3039">
        <ele>411.7</ele>
        <time>2019-10-30T15:05:50Z</time>
      </trkpt>
      <trkpt lat="43.57232" lon="6.30401">
        <ele>411.3</ele>
        <time>2019-10-30T15:06:45Z</time>
      </trkpt>
      <trkpt lat="43.57243" lon="6.30403">
        <ele>411</ele>
        <time>2019-10-30T15:06:52Z</time>
      </trkpt>
      <trkpt lat="43.57237" lon="6.30394">
        <ele>411.3</ele>
        <time>2019-10-30T15:07:22Z</time>
      </trkpt>
      <trkpt lat="43.57228" lon="6.30398">
        <ele>411.5</ele>
        <time>2019-10-30T15:07:40Z</time>
      </trkpt>
      <trkpt lat="43.57229" lon="6.3041">
        <ele>412</ele>
        <time>2019-10-30T15:08:00Z</time>
      </trkpt>
      <trkpt lat="43.57228" lon="6.30424">
        <ele>413.3</ele>
        <time>2019-10-30T15:08:23Z</time>
      </trkpt>
      <trkpt lat="43.57229" lon="6.30436">
        <ele>414.5</ele>
        <time>2019-10-30T15:08:35Z</time>
      </trkpt>
      <trkpt lat="43.57232" lon="6.30449">
        <ele>415.7</ele>
        <time>2019-10-30T15:08:46Z</time>
      </trkpt>
      <trkpt lat="43.57233" lon="6.30463">
        <ele>416.6</ele>
        <time>2019-10-30T15:08:58Z</time>
      </trkpt>
      <trkpt lat="43.57234" lon="6.30475">
        <ele>417.3</ele>
        <time>2019-10-30T15:09:08Z</time>
      </trkpt>
      <trkpt lat="43.57238" lon="6.30487">
        <ele>419.5</ele>
        <time>2019-10-30T15:09:21Z</time>
      </trkpt>
      <trkpt lat="43.57246" lon="6.30495">
        <ele>420.3</ele>
        <time>2019-10-30T15:09:34Z</time>
      </trkpt>
      <trkpt lat="43.57253" lon="6.30504">
        <ele>420.6</ele>
        <time>2019-10-30T15:09:44Z</time>
      </trkpt>
      <trkpt lat="43.57262" lon="6.30507">
        <ele>421.7</ele>
        <time>2019-10-30T15:10:00Z</time>
      </trkpt>
      <trkpt lat="43.57271" lon="6.3051">
        <ele>423.3</ele>
        <time>2019-10-30T15:10:14Z</time>
      </trkpt>
      <trkpt lat="43.5728" lon="6.30513">
        <ele>424.9</ele>
        <time>2019-10-30T15:10:26Z</time>
      </trkpt>
      <trkpt lat="43.57286" lon="6.30524">
        <ele>428.4</ele>
        <time>2019-10-30T15:10:49Z</time>
      </trkpt>
      <trkpt lat="43.57288" lon="6.30536">
        <ele>432.4</ele>
        <time>2019-10-30T15:11:10Z</time>
      </trkpt>
      <trkpt lat="43.57295" lon="6.30545">
        <ele>433.7</ele>
        <time>2019-10-30T15:11:25Z</time>
      </trkpt>
      <trkpt lat="43.57304" lon="6.30542">
        <ele>434.1</ele>
        <time>2019-10-30T15:11:35Z</time>
      </trkpt>
      <trkpt lat="43.57313" lon="6.30541">
        <ele>434.8</ele>
        <time>2019-10-30T15:11:46Z</time>
      </trkpt>
      <trkpt lat="43.57323" lon="6.30541">
        <ele>435.1</ele>
        <time>2019-10-30T15:11:55Z</time>
      </trkpt>
      <trkpt lat="43.57333" lon="6.3054">
        <ele>435.2</ele>
        <time>2019-10-30T15:12:04Z</time>
      </trkpt>
      <trkpt lat="43.57342" lon="6.30542">
        <ele>435.6</ele>
        <time>2019-10-30T15:12:12Z</time>
      </trkpt>
      <trkpt lat="43.57352" lon="6.30544">
        <ele>435.9</ele>
        <time>2019-10-30T15:12:21Z</time>
      </trkpt>
      <trkpt lat="43.57361" lon="6.3055">
        <ele>435.5</ele>
        <time>2019-10-30T15:12:34Z</time>
      </trkpt>
      <trkpt lat="43.57369" lon="6.30555">
        <ele>435.2</ele>
        <time>2019-10-30T15:12:43Z</time>
      </trkpt>
      <trkpt lat="43.57379" lon="6.30558">
        <ele>433.9</ele>
        <time>2019-10-30T15:12:55Z</time>
      </trkpt>
      <trkpt lat="43.57388" lon="6.30562">
        <ele>432.7</ele>
        <time>2019-10-30T15:13:08Z</time>
      </trkpt>
      <trkpt lat="43.57396" lon="6.30568">
        <ele>430.3</ele>
        <time>2019-10-30T15:13:57Z</time>
      </trkpt>
      <trkpt lat="43.57406" lon="6.30566">
        <ele>430.7</ele>
        <time>2019-10-30T15:14:24Z</time>
      </trkpt>
      <trkpt lat="43.57406" lon="6.30553">
        <ele>432.6</ele>
        <time>2019-10-30T15:14:38Z</time>
      </trkpt>
      <trkpt lat="43.57406" lon="6.30541">
        <ele>434.5</ele>
        <time>2019-10-30T15:14:51Z</time>
      </trkpt>
      <trkpt lat="43.57404" lon="6.30527">
        <ele>436.5</ele>
        <time>2019-10-30T15:15:03Z</time>
      </trkpt>
      <trkpt lat="43.57399" lon="6.30516">
        <ele>437</ele>
        <time>2019-10-30T15:15:17Z</time>
      </trkpt>
      <trkpt lat="43.57391" lon="6.30508">
        <ele>436.5</ele>
        <time>2019-10-30T15:15:25Z</time>
      </trkpt>
      <trkpt lat="43.57384" lon="6.30499">
        <ele>436.5</ele>
        <time>2019-10-30T15:15:33Z</time>
      </trkpt>
      <trkpt lat="43.57383" lon="6.30485">
        <ele>437.9</ele>
        <time>2019-10-30T15:15:46Z</time>
      </trkpt>
      <trkpt lat="43.57376" lon="6.30477">
        <ele>438.6</ele>
        <time>2019-10-30T15:15:53Z</time>
      </trkpt>
      <trkpt lat="43.57373" lon="6.30465">
        <ele>439.9</ele>
        <time>2019-10-30T15:16:04Z</time>
      </trkpt>
      <trkpt lat="43.5737" lon="6.30453">
        <ele>441</ele>
        <time>2019-10-30T15:16:23Z</time>
      </trkpt>
      <trkpt lat="43.57363" lon="6.30444">
        <ele>441.2</ele>
        <time>2019-10-30T15:16:44Z</time>
      </trkpt>
      <trkpt lat="43.57356" lon="6.30452">
        <ele>441.3</ele>
        <time>2019-10-30T15:17:46Z</time>
      </trkpt>
      <trkpt lat="43.57363" lon="6.30444">
        <ele>441.1</ele>
        <time>2019-10-30T15:18:43Z</time>
      </trkpt>
      <trkpt lat="43.57372" lon="6.30439">
        <ele>440.2</ele>
        <time>2019-10-30T15:18:54Z</time>
      </trkpt>
      <trkpt lat="43.57381" lon="6.30445">
        <ele>439.1</ele>
        <time>2019-10-30T15:19:07Z</time>
      </trkpt>
      <trkpt lat="43.5739" lon="6.30445">
        <ele>437.3</ele>
        <time>2019-10-30T15:19:21Z</time>
      </trkpt>
      <trkpt lat="43.574" lon="6.30442">
        <ele>436</ele>
        <time>2019-10-30T15:19:31Z</time>
      </trkpt>
      <trkpt lat="43.57409" lon="6.30438">
        <ele>435</ele>
        <time>2019-10-30T15:19:42Z</time>
      </trkpt>
      <trkpt lat="43.57415" lon="6.30429">
        <ele>433.6</ele>
        <time>2019-10-30T15:19:55Z</time>
      </trkpt>
      <trkpt lat="43.57414" lon="6.30417">
        <ele>432</ele>
        <time>2019-10-30T15:20:12Z</time>
      </trkpt>
      <trkpt lat="43.5741" lon="6.30405">
        <ele>431.6</ele>
        <time>2019-10-30T15:20:21Z</time>
      </trkpt>
      <trkpt lat="43.57405" lon="6.30394">
        <ele>431.4</ele>
        <time>2019-10-30T15:20:30Z</time>
      </trkpt>
      <trkpt lat="43.574" lon="6.30382">
        <ele>430.7</ele>
        <time>2019-10-30T15:20:40Z</time>
      </trkpt>
      <trkpt lat="43.57395" lon="6.30371">
        <ele>429.9</ele>
        <time>2019-10-30T15:20:49Z</time>
      </trkpt>
      <trkpt lat="43.57389" lon="6.3036">
        <ele>429.4</ele>
        <time>2019-10-30T15:21:00Z</time>
      </trkpt>
      <trkpt lat="43.57383" lon="6.30351">
        <ele>428.7</ele>
        <time>2019-10-30T15:21:14Z</time>
      </trkpt>
      <trkpt lat="43.57376" lon="6.30342">
        <ele>427.6</ele>
        <time>2019-10-30T15:21:28Z</time>
      </trkpt>
      <trkpt lat="43.57373" lon="6.3033">
        <ele>426.4</ele>
        <time>2019-10-30T15:21:47Z</time>
      </trkpt>
      <trkpt lat="43.57368" lon="6.30318">
        <ele>424.7</ele>
        <time>2019-10-30T15:22:06Z</time>
      </trkpt>
      <trkpt lat="43.57364" lon="6.30307">
        <ele>422.3</ele>
        <time>2019-10-30T15:22:19Z</time>
      </trkpt>
      <trkpt lat="43.57358" lon="6.30297">
        <ele>419.7</ele>
        <time>2019-10-30T15:22:48Z</time>
      </trkpt>
      <trkpt lat="43.57367" lon="6.30293">
        <ele>418.2</ele>
        <time>2019-10-30T15:23:39Z</time>
      </trkpt>
      <trkpt lat="43.57357" lon="6.30296">
        <ele>419</ele>
        <time>2019-10-30T15:24:20Z</time>
      </trkpt>
      <trkpt lat="43.57351" lon="6.30287">
        <ele>416.7</ele>
        <time>2019-10-30T15:24:58Z</time>
      </trkpt>
      <trkpt lat="43.57345" lon="6.30277">
        <ele>414</ele>
        <time>2019-10-30T15:25:16Z</time>
      </trkpt>
      <trkpt lat="43.57337" lon="6.30271">
        <ele>412.2</ele>
        <time>2019-10-30T15:25:28Z</time>
      </trkpt>
      <trkpt lat="43.57328" lon="6.30272">
        <ele>411.5</ele>
        <time>2019-10-30T15:25:34Z</time>
      </trkpt>
      <trkpt lat="43.57321" lon="6.30263">
        <ele>410.3</ele>
        <time>2019-10-30T15:25:49Z</time>
      </trkpt>
      <trkpt lat="43.57316" lon="6.30253">
        <ele>408.2</ele>
        <time>2019-10-30T15:26:07Z</time>
      </trkpt>
      <trkpt lat="43.57311" lon="6.30242">
        <ele>406.6</ele>
        <time>2019-10-30T15:26:26Z</time>
      </trkpt>
      <trkpt lat="43.57304" lon="6.30233">
        <ele>405.7</ele>
        <time>2019-10-30T15:26:47Z</time>
      </trkpt>
      <trkpt lat="43.57296" lon="6.30226">
        <ele>404.9</ele>
        <time>2019-10-30T15:27:02Z</time>
      </trkpt>
      <trkpt lat="43.57287" lon="6.30222">
        <ele>405</ele>
        <time>2019-10-30T15:27:08Z</time>
      </trkpt>
      <trkpt lat="43.57278" lon="6.30217">
        <ele>403.6</ele>
        <time>2019-10-30T15:27:45Z</time>
      </trkpt>
      <trkpt lat="43.57269" lon="6.30212">
        <ele>403.2</ele>
        <time>2019-10-30T15:27:56Z</time>
      </trkpt>
      <trkpt lat="43.57262" lon="6.30204">
        <ele>402.5</ele>
        <time>2019-10-30T15:28:05Z</time>
      </trkpt>
      <trkpt lat="43.57255" lon="6.30195">
        <ele>401.5</ele>
        <time>2019-10-30T15:28:18Z</time>
      </trkpt>
      <trkpt lat="43.57246" lon="6.3019">
        <ele>400.6</ele>
        <time>2019-10-30T15:28:31Z</time>
      </trkpt>
      <trkpt lat="43.57241" lon="6.3018">
        <ele>397.5</ele>
        <time>2019-10-30T15:29:18Z</time>
      </trkpt>
      <trkpt lat="43.57249" lon="6.30173">
        <ele>397.5</ele>
        <time>2019-10-30T15:29:28Z</time>
      </trkpt>
      <trkpt lat="43.57253" lon="6.30162">
        <ele>396.1</ele>
        <time>2019-10-30T15:30:09Z</time>
      </trkpt>
      <trkpt lat="43.57255" lon="6.30149">
        <ele>395.2</ele>
        <time>2019-10-30T15:30:51Z</time>
      </trkpt>
      <trkpt lat="43.57252" lon="6.30136">
        <ele>394.7</ele>
        <time>2019-10-30T15:30:59Z</time>
      </trkpt>
      <trkpt lat="43.57247" lon="6.30124">
        <ele>394.3</ele>
        <time>2019-10-30T15:31:08Z</time>
      </trkpt>
      <trkpt lat="43.57242" lon="6.30112">
        <ele>392.6</ele>
        <time>2019-10-30T15:31:18Z</time>
      </trkpt>
      <trkpt lat="43.57238" lon="6.30101">
        <ele>390.5</ele>
        <time>2019-10-30T15:31:49Z</time>
      </trkpt>
      <trkpt lat="43.57234" lon="6.30089">
        <ele>390.1</ele>
        <time>2019-10-30T15:31:59Z</time>
      </trkpt>
      <trkpt lat="43.57231" lon="6.30077">
        <ele>389</ele>
        <time>2019-10-30T15:32:09Z</time>
      </trkpt>
      <trkpt lat="43.57225" lon="6.30066">
        <ele>386.6</ele>
        <time>2019-10-30T15:32:20Z</time>
      </trkpt>
      <trkpt lat="43.57223" lon="6.30054">
        <ele>384.3</ele>
        <time>2019-10-30T15:32:31Z</time>
      </trkpt>
      <trkpt lat="43.57224" lon="6.30041">
        <ele>382</ele>
        <time>2019-10-30T15:32:42Z</time>
      </trkpt>
      <trkpt lat="43.57226" lon="6.30028">
        <ele>381.1</ele>
        <time>2019-10-30T15:32:52Z</time>
      </trkpt>
      <trkpt lat="43.57228" lon="6.30016">
        <ele>379.9</ele>
        <time>2019-10-30T15:33:01Z</time>
      </trkpt>
      <trkpt lat="43.57232" lon="6.30004">
        <ele>379.5</ele>
        <time>2019-10-30T15:33:11Z</time>
      </trkpt>
      <trkpt lat="43.57237" lon="6.29992">
        <ele>378.8</ele>
        <time>2019-10-30T15:33:21Z</time>
      </trkpt>
      <trkpt lat="43.57243" lon="6.29982">
        <ele>378.1</ele>
        <time>2019-10-30T15:33:33Z</time>
      </trkpt>
      <trkpt lat="43.57248" lon="6.2997">
        <ele>376.8</ele>
        <time>2019-10-30T15:33:45Z</time>
      </trkpt>
      <trkpt lat="43.57252" lon="6.29959">
        <ele>376.4</ele>
        <time>2019-10-30T15:33:53Z</time>
      </trkpt>
      <trkpt lat="43.57256" lon="6.29947">
        <ele>375.8</ele>
        <time>2019-10-30T15:34:03Z</time>
      </trkpt>
      <trkpt lat="43.5726" lon="6.29935">
        <ele>375.6</ele>
        <time>2019-10-30T15:34:12Z</time>
      </trkpt>
      <trkpt lat="43.57261" lon="6.29923">
        <ele>375.4</ele>
        <time>2019-10-30T15:34:25Z</time>
      </trkpt>
      <trkpt lat="43.57263" lon="6.2991">
        <ele>375.4</ele>
        <time>2019-10-30T15:34:38Z</time>
      </trkpt>
      <trkpt lat="43.57266" lon="6.29898">
        <ele>375.3</ele>
        <time>2019-10-30T15:34:51Z</time>
      </trkpt>
      <trkpt lat="43.57265" lon="6.29885">
        <ele>374.5</ele>
        <time>2019-10-30T15:35:02Z</time>
      </trkpt>
      <trkpt lat="43.5726" lon="6.29874">
        <ele>374.4</ele>
        <time>2019-10-30T15:35:14Z</time>
      </trkpt>
      <trkpt lat="43.57252" lon="6.29868">
        <ele>374.1</ele>
        <time>2019-10-30T15:35:43Z</time>
      </trkpt>
      <trkpt lat="43.57254" lon="6.29855">
        <ele>374.6</ele>
        <time>2019-10-30T15:36:20Z</time>
      </trkpt>
      <trkpt lat="43.57255" lon="6.29843">
        <ele>373.7</ele>
        <time>2019-10-30T15:36:43Z</time>
      </trkpt>
      <trkpt lat="43.57252" lon="6.2983">
        <ele>373.9</ele>
        <time>2019-10-30T15:36:56Z</time>
      </trkpt>
      <trkpt lat="43.57252" lon="6.29817">
        <ele>373.8</ele>
        <time>2019-10-30T15:37:09Z</time>
      </trkpt>
      <trkpt lat="43.5725" lon="6.29805">
        <ele>374.4</ele>
        <time>2019-10-30T15:37:22Z</time>
      </trkpt>
      <trkpt lat="43.57248" lon="6.29793">
        <ele>373.7</ele>
        <time>2019-10-30T15:37:43Z</time>
      </trkpt>
      <trkpt lat="43.57248" lon="6.2978">
        <ele>373.2</ele>
        <time>2019-10-30T15:37:58Z</time>
      </trkpt>
      <trkpt lat="43.57242" lon="6.29771">
        <ele>373.1</ele>
        <time>2019-10-30T15:38:22Z</time>
      </trkpt>
      <trkpt lat="43.57233" lon="6.29767">
        <ele>372.1</ele>
        <time>2019-10-30T15:39:01Z</time>
      </trkpt>
      <trkpt lat="43.57226" lon="6.29775">
        <ele>368.4</ele>
        <time>2019-10-30T15:39:34Z</time>
      </trkpt>
      <trkpt lat="43.57225" lon="6.29788">
        <ele>366.5</ele>
        <time>2019-10-30T15:39:47Z</time>
      </trkpt>
      <trkpt lat="43.57228" lon="6.298">
        <ele>366.4</ele>
        <time>2019-10-30T15:39:59Z</time>
      </trkpt>
      <trkpt lat="43.57219" lon="6.29796">
        <ele>367.7</ele>
        <time>2019-10-30T15:40:49Z</time>
      </trkpt>
      <trkpt lat="43.57215" lon="6.29785">
        <ele>368.8</ele>
        <time>2019-10-30T15:41:05Z</time>
      </trkpt>
      <trkpt lat="43.57214" lon="6.29771">
        <ele>370.1</ele>
        <time>2019-10-30T15:41:17Z</time>
      </trkpt>
      <trkpt lat="43.57209" lon="6.2976">
        <ele>370.8</ele>
        <time>2019-10-30T15:41:28Z</time>
      </trkpt>
      <trkpt lat="43.57209" lon="6.29747">
        <ele>371.2</ele>
        <time>2019-10-30T15:41:39Z</time>
      </trkpt>
      <trkpt lat="43.57203" lon="6.29736">
        <ele>370.8</ele>
        <time>2019-10-30T15:41:48Z</time>
      </trkpt>
      <trkpt lat="43.57203" lon="6.29723">
        <ele>370.6</ele>
        <time>2019-10-30T15:41:58Z</time>
      </trkpt>
      <trkpt lat="43.57203" lon="6.2971">
        <ele>370.3</ele>
        <time>2019-10-30T15:42:09Z</time>
      </trkpt>
      <trkpt lat="43.57198" lon="6.29698">
        <ele>369.9</ele>
        <time>2019-10-30T15:42:20Z</time>
      </trkpt>
      <trkpt lat="43.57192" lon="6.29688">
        <ele>369.3</ele>
        <time>2019-10-30T15:42:30Z</time>
      </trkpt>
      <trkpt lat="43.57189" lon="6.29676">
        <ele>368.3</ele>
        <time>2019-10-30T15:42:41Z</time>
      </trkpt>
      <trkpt lat="43.57182" lon="6.29666">
        <ele>368.1</ele>
        <time>2019-10-30T15:42:51Z</time>
      </trkpt>
      <trkpt lat="43.57177" lon="6.29656">
        <ele>367.8</ele>
        <time>2019-10-30T15:43:00Z</time>
      </trkpt>
      <trkpt lat="43.57173" lon="6.29644">
        <ele>367.2</ele>
        <time>2019-10-30T15:43:13Z</time>
      </trkpt>
      <trkpt lat="43.57183" lon="6.29641">
        <ele>365.9</ele>
        <time>2019-10-30T15:43:38Z</time>
      </trkpt>
      <trkpt lat="43.5719" lon="6.29631">
        <ele>365.2</ele>
        <time>2019-10-30T15:44:16Z</time>
      </trkpt>
      <trkpt lat="43.57182" lon="6.29626">
        <ele>364</ele>
        <time>2019-10-30T15:45:16Z</time>
      </trkpt>
      <trkpt lat="43.57191" lon="6.29625">
        <ele>364.6</ele>
        <time>2019-10-30T15:46:03Z</time>
      </trkpt>
      <trkpt lat="43.57185" lon="6.29635">
        <ele>365.3</ele>
        <time>2019-10-30T15:46:47Z</time>
      </trkpt>
      <trkpt lat="43.57176" lon="6.29633">
        <ele>365.6</ele>
        <time>2019-10-30T15:47:14Z</time>
      </trkpt>
      <trkpt lat="43.57167" lon="6.29632">
        <ele>366.4</ele>
        <time>2019-10-30T15:47:48Z</time>
      </trkpt>
      <trkpt lat="43.57159" lon="6.29627">
        <ele>366.6</ele>
        <time>2019-10-30T15:48:00Z</time>
      </trkpt>
      <trkpt lat="43.57156" lon="6.29615">
        <ele>366.5</ele>
        <time>2019-10-30T15:48:13Z</time>
      </trkpt>
      <trkpt lat="43.5715" lon="6.29605">
        <ele>366</ele>
        <time>2019-10-30T15:48:27Z</time>
      </trkpt>
      <trkpt lat="43.57144" lon="6.29596">
        <ele>365.4</ele>
        <time>2019-10-30T15:48:37Z</time>
      </trkpt>
      <trkpt lat="43.57139" lon="6.29585">
        <ele>365.9</ele>
        <time>2019-10-30T15:48:50Z</time>
      </trkpt>
      <trkpt lat="43.57131" lon="6.29578">
        <ele>365.9</ele>
        <time>2019-10-30T15:49:03Z</time>
      </trkpt>
      <trkpt lat="43.57121" lon="6.29576">
        <ele>366</ele>
        <time>2019-10-30T15:49:15Z</time>
      </trkpt>
      <trkpt lat="43.57112" lon="6.29576">
        <ele>365.8</ele>
        <time>2019-10-30T15:49:25Z</time>
      </trkpt>
      <trkpt lat="43.57102" lon="6.29578">
        <ele>365.6</ele>
        <time>2019-10-30T15:49:34Z</time>
      </trkpt>
      <trkpt lat="43.57094" lon="6.29585">
        <ele>365.7</ele>
        <time>2019-10-30T15:49:44Z</time>
      </trkpt>
      <trkpt lat="43.5709" lon="6.29596">
        <ele>366.2</ele>
        <time>2019-10-30T15:49:58Z</time>
      </trkpt>
      <trkpt lat="43.57083" lon="6.29604">
        <ele>366.6</ele>
        <time>2019-10-30T15:50:09Z</time>
      </trkpt>
      <trkpt lat="43.57075" lon="6.29612">
        <ele>366.7</ele>
        <time>2019-10-30T15:50:19Z</time>
      </trkpt>
      <trkpt lat="43.57067" lon="6.29619">
        <ele>366.6</ele>
        <time>2019-10-30T15:50:29Z</time>
      </trkpt>
      <trkpt lat="43.5706" lon="6.29626">
        <ele>366.4</ele>
        <time>2019-10-30T15:50:40Z</time>
      </trkpt>
      <trkpt lat="43.57053" lon="6.29636">
        <ele>366.6</ele>
        <time>2019-10-30T15:50:50Z</time>
      </trkpt>
      <trkpt lat="43.57049" lon="6.29648">
        <ele>366.6</ele>
        <time>2019-10-30T15:51:01Z</time>
      </trkpt>
      <trkpt lat="43.5704" lon="6.29643">
        <ele>366.5</ele>
        <time>2019-10-30T15:51:16Z</time>
      </trkpt>
      <trkpt lat="43.57035" lon="6.29633">
        <ele>366.5</ele>
        <time>2019-10-30T15:51:27Z</time>
      </trkpt>
      <trkpt lat="43.57027" lon="6.29627">
        <ele>366.8</ele>
        <time>2019-10-30T15:51:38Z</time>
      </trkpt>
      <trkpt lat="43.57018" lon="6.29625">
        <ele>367.6</ele>
        <time>2019-10-30T15:51:53Z</time>
      </trkpt>
      <trkpt lat="43.57008" lon="6.29622">
        <ele>369.1</ele>
        <time>2019-10-30T15:52:06Z</time>
      </trkpt>
      <trkpt lat="43.56999" lon="6.29618">
        <ele>369.8</ele>
        <time>2019-10-30T15:52:21Z</time>
      </trkpt>
      <trkpt lat="43.5699" lon="6.29621">
        <ele>368.2</ele>
        <time>2019-10-30T15:52:37Z</time>
      </trkpt>
      <trkpt lat="43.56981" lon="6.29624">
        <ele>367.2</ele>
        <time>2019-10-30T15:52:53Z</time>
      </trkpt>
      <trkpt lat="43.56972" lon="6.29626">
        <ele>366.5</ele>
        <time>2019-10-30T15:53:08Z</time>
      </trkpt>
      <trkpt lat="43.56964" lon="6.29621">
        <ele>365.7</ele>
        <time>2019-10-30T15:53:19Z</time>
      </trkpt>
      <trkpt lat="43.56958" lon="6.29611">
        <ele>365</ele>
        <time>2019-10-30T15:53:30Z</time>
      </trkpt>
      <trkpt lat="43.56955" lon="6.29598">
        <ele>364.8</ele>
        <time>2019-10-30T15:53:43Z</time>
      </trkpt>
      <trkpt lat="43.56952" lon="6.29585">
        <ele>364.8</ele>
        <time>2019-10-30T15:53:54Z</time>
      </trkpt>
      <trkpt lat="43.56949" lon="6.29573">
        <ele>364.2</ele>
        <time>2019-10-30T15:54:05Z</time>
      </trkpt>
      <trkpt lat="43.56944" lon="6.29562">
        <ele>364</ele>
        <time>2019-10-30T15:54:16Z</time>
      </trkpt>
      <trkpt lat="43.5694" lon="6.29551">
        <ele>364.1</ele>
        <time>2019-10-30T15:54:26Z</time>
      </trkpt>
      <trkpt lat="43.56939" lon="6.29538">
        <ele>364</ele>
        <time>2019-10-30T15:54:36Z</time>
      </trkpt>
      <trkpt lat="43.56935" lon="6.29527">
        <ele>364.1</ele>
        <time>2019-10-30T15:54:44Z</time>
      </trkpt>
      <trkpt lat="43.56931" lon="6.29515">
        <ele>364.2</ele>
        <time>2019-10-30T15:54:53Z</time>
      </trkpt>
      <trkpt lat="43.56927" lon="6.29503">
        <ele>365.1</ele>
        <time>2019-10-30T15:55:08Z</time>
      </trkpt>
      <trkpt lat="43.56923" lon="6.29492">
        <ele>366.8</ele>
        <time>2019-10-30T15:55:32Z</time>
      </trkpt>
      <trkpt lat="43.56914" lon="6.29496">
        <ele>367.8</ele>
        <time>2019-10-30T15:58:06Z</time>
      </trkpt>
      <trkpt lat="43.56907" lon="6.29486">
        <ele>367.5</ele>
        <time>2019-10-30T15:58:21Z</time>
      </trkpt>
      <trkpt lat="43.56905" lon="6.29474">
        <ele>367</ele>
        <time>2019-10-30T15:58:34Z</time>
      </trkpt>
      <trkpt lat="43.56903" lon="6.29462">
        <ele>366.5</ele>
        <time>2019-10-30T15:58:50Z</time>
      </trkpt>
      <trkpt lat="43.56903" lon="6.29448">
        <ele>365.1</ele>
        <time>2019-10-30T15:59:07Z</time>
      </trkpt>
      <trkpt lat="43.56905" lon="6.29435">
        <ele>364.2</ele>
        <time>2019-10-30T15:59:17Z</time>
      </trkpt>
      <trkpt lat="43.56907" lon="6.29423">
        <ele>363</ele>
        <time>2019-10-30T15:59:28Z</time>
      </trkpt>
      <trkpt lat="43.56913" lon="6.29413">
        <ele>362.4</ele>
        <time>2019-10-30T15:59:40Z</time>
      </trkpt>
      <trkpt lat="43.56916" lon="6.29401">
        <ele>362.2</ele>
        <time>2019-10-30T15:59:50Z</time>
      </trkpt>
      <trkpt lat="43.56911" lon="6.29392">
        <ele>361.1</ele>
        <time>2019-10-30T16:00:03Z</time>
      </trkpt>
      <trkpt lat="43.56909" lon="6.29379">
        <ele>360</ele>
        <time>2019-10-30T16:00:17Z</time>
      </trkpt>
      <trkpt lat="43.56908" lon="6.29365">
        <ele>358.5</ele>
        <time>2019-10-30T16:00:33Z</time>
      </trkpt>
      <trkpt lat="43.569" lon="6.29357">
        <ele>354.5</ele>
        <time>2019-10-30T16:00:58Z</time>
      </trkpt>
      <trkpt lat="43.56892" lon="6.29351">
        <ele>351.4</ele>
        <time>2019-10-30T16:01:18Z</time>
      </trkpt>
      <trkpt lat="43.56891" lon="6.29339">
        <ele>349.5</ele>
        <time>2019-10-30T16:03:28Z</time>
      </trkpt>
      <trkpt lat="43.56896" lon="6.29328">
        <ele>347.7</ele>
        <time>2019-10-30T16:03:50Z</time>
      </trkpt>
      <trkpt lat="43.56901" lon="6.29317">
        <ele>346.8</ele>
        <time>2019-10-30T16:04:03Z</time>
      </trkpt>
      <trkpt lat="43.56907" lon="6.29308">
        <ele>346.1</ele>
        <time>2019-10-30T16:04:13Z</time>
      </trkpt>
      <trkpt lat="43.56905" lon="6.29295">
        <ele>344.4</ele>
        <time>2019-10-30T16:04:31Z</time>
      </trkpt>
      <trkpt lat="43.56905" lon="6.29282">
        <ele>344.3</ele>
        <time>2019-10-30T16:04:51Z</time>
      </trkpt>
      <trkpt lat="43.56896" lon="6.29279">
        <ele>346.1</ele>
        <time>2019-10-30T16:05:07Z</time>
      </trkpt>
      <trkpt lat="43.5689" lon="6.29269">
        <ele>347.8</ele>
        <time>2019-10-30T16:05:26Z</time>
      </trkpt>
      <trkpt lat="43.5689" lon="6.29256">
        <ele>348.4</ele>
        <time>2019-10-30T16:05:37Z</time>
      </trkpt>
      <trkpt lat="43.56886" lon="6.29243">
        <ele>348.7</ele>
        <time>2019-10-30T16:05:53Z</time>
      </trkpt>
      <trkpt lat="43.56881" lon="6.29233">
        <ele>348.9</ele>
        <time>2019-10-30T16:06:03Z</time>
      </trkpt>
      <trkpt lat="43.56879" lon="6.2922">
        <ele>348.9</ele>
        <time>2019-10-30T16:06:10Z</time>
      </trkpt>
      <trkpt lat="43.56873" lon="6.29209">
        <ele>349.2</ele>
        <time>2019-10-30T16:06:19Z</time>
      </trkpt>
      <trkpt lat="43.56865" lon="6.29213">
        <ele>349.1</ele>
        <time>2019-10-30T16:06:36Z</time>
      </trkpt>
      <trkpt lat="43.56858" lon="6.29221">
        <ele>349.5</ele>
        <time>2019-10-30T16:06:49Z</time>
      </trkpt>
      <trkpt lat="43.56852" lon="6.29231">
        <ele>349.7</ele>
        <time>2019-10-30T16:06:59Z</time>
      </trkpt>
      <trkpt lat="43.56846" lon="6.29241">
        <ele>349.3</ele>
        <time>2019-10-30T16:07:09Z</time>
      </trkpt>
      <trkpt lat="43.5684" lon="6.2925">
        <ele>349.8</ele>
        <time>2019-10-30T16:07:18Z</time>
      </trkpt>
      <trkpt lat="43.56832" lon="6.2926">
        <ele>349.8</ele>
        <time>2019-10-30T16:07:27Z</time>
      </trkpt>
      <trkpt lat="43.56826" lon="6.29268">
        <ele>350.2</ele>
        <time>2019-10-30T16:07:42Z</time>
      </trkpt>
      <trkpt lat="43.56817" lon="6.29271">
        <ele>348.9</ele>
        <time>2019-10-30T16:08:05Z</time>
      </trkpt>
      <trkpt lat="43.56809" lon="6.29278">
        <ele>348.2</ele>
        <time>2019-10-30T16:08:15Z</time>
      </trkpt>
      <trkpt lat="43.56803" lon="6.29288">
        <ele>347.5</ele>
        <time>2019-10-30T16:08:28Z</time>
      </trkpt>
      <trkpt lat="43.56798" lon="6.29299">
        <ele>346.8</ele>
        <time>2019-10-30T16:08:45Z</time>
      </trkpt>
      <trkpt lat="43.56793" lon="6.2931">
        <ele>346.3</ele>
        <time>2019-10-30T16:08:57Z</time>
      </trkpt>
      <trkpt lat="43.56788" lon="6.29321">
        <ele>345.9</ele>
        <time>2019-10-30T16:09:08Z</time>
      </trkpt>
      <trkpt lat="43.56782" lon="6.29331">
        <ele>346.1</ele>
        <time>2019-10-30T16:09:19Z</time>
      </trkpt>
      <trkpt lat="43.56773" lon="6.29338">
        <ele>345.8</ele>
        <time>2019-10-30T16:09:31Z</time>
      </trkpt>
      <trkpt lat="43.56765" lon="6.29345">
        <ele>345.5</ele>
        <time>2019-10-30T16:09:39Z</time>
      </trkpt>
      <trkpt lat="43.56757" lon="6.2935">
        <ele>344.8</ele>
        <time>2019-10-30T16:09:50Z</time>
      </trkpt>
      <trkpt lat="43.56748" lon="6.29354">
        <ele>342.2</ele>
        <time>2019-10-30T16:10:18Z</time>
      </trkpt>
      <trkpt lat="43.56739" lon="6.29355">
        <ele>341.3</ele>
        <time>2019-10-30T16:10:27Z</time>
      </trkpt>
      <trkpt lat="43.56729" lon="6.29355">
        <ele>340.9</ele>
        <time>2019-10-30T16:10:37Z</time>
      </trkpt>
      <trkpt lat="43.56721" lon="6.2936">
        <ele>340.6</ele>
        <time>2019-10-30T16:10:46Z</time>
      </trkpt>
      <trkpt lat="43.56714" lon="6.29368">
        <ele>340.6</ele>
        <time>2019-10-30T16:10:57Z</time>
      </trkpt>
      <trkpt lat="43.56705" lon="6.29373">
        <ele>339.8</ele>
        <time>2019-10-30T16:11:21Z</time>
      </trkpt>
      <trkpt lat="43.56696" lon="6.29381">
        <ele>339.5</ele>
        <time>2019-10-30T16:11:32Z</time>
      </trkpt>
      <trkpt lat="43.56687" lon="6.29384">
        <ele>338.9</ele>
        <time>2019-10-30T16:11:46Z</time>
      </trkpt>
      <trkpt lat="43.56678" lon="6.29384">
        <ele>338.1</ele>
        <time>2019-10-30T16:12:03Z</time>
      </trkpt>
      <trkpt lat="43.56669" lon="6.29385">
        <ele>336.6</ele>
        <time>2019-10-30T16:12:15Z</time>
      </trkpt>
      <trkpt lat="43.56659" lon="6.29386">
        <ele>336</ele>
        <time>2019-10-30T16:12:25Z</time>
      </trkpt>
      <trkpt lat="43.5665" lon="6.29385">
        <ele>334.9</ele>
        <time>2019-10-30T16:12:33Z</time>
      </trkpt>
      <trkpt lat="43.5664" lon="6.29384">
        <ele>333.9</ele>
        <time>2019-10-30T16:12:41Z</time>
      </trkpt>
      <trkpt lat="43.56631" lon="6.2938">
        <ele>332.9</ele>
        <time>2019-10-30T16:12:50Z</time>
      </trkpt>
      <trkpt lat="43.56623" lon="6.29374">
        <ele>332.2</ele>
        <time>2019-10-30T16:13:00Z</time>
      </trkpt>
      <trkpt lat="43.56615" lon="6.29366">
        <ele>331.5</ele>
        <time>2019-10-30T16:13:11Z</time>
      </trkpt>
      <trkpt lat="43.56606" lon="6.2936">
        <ele>330.9</ele>
        <time>2019-10-30T16:13:22Z</time>
      </trkpt>
      <trkpt lat="43.56599" lon="6.29352">
        <ele>329.9</ele>
        <time>2019-10-30T16:13:34Z</time>
      </trkpt>
      <trkpt lat="43.56591" lon="6.29346">
        <ele>329.1</ele>
        <time>2019-10-30T16:13:44Z</time>
      </trkpt>
      <trkpt lat="43.56582" lon="6.29339">
        <ele>327.8</ele>
        <time>2019-10-30T16:13:53Z</time>
      </trkpt>
      <trkpt lat="43.56574" lon="6.29333">
        <ele>327.7</ele>
        <time>2019-10-30T16:14:02Z</time>
      </trkpt>
      <trkpt lat="43.56567" lon="6.29328">
        <ele>326.6</ele>
        <time>2019-10-30T16:14:31Z</time>
      </trkpt>
    </trkseg>
  </trk>
</gpx>